<?xml version="1.0" encoding="UTF-8" standalone="no" ?>
<gpx xmlns="http://www.topografix.com/GPX/1/1" xmlns:xsi="http://www.w3.org/2001/XMLSchema-instance" xsi:schemaLocation="http://www.topografix.com/GPX/1/1 http://www.topografix.com/GPX/1/1/gpx.xsd" version="1.1" creator="VisuGPX - https://www.visugpx.com">
  <metadata>
    <name>StCezaireOuestSiagne</name>
    <desc><![CDATA[Vallon de la Siagne à l\'ouest de Saint Cézaire]]></desc>
  </metadata>
  <trk>
    <name><![CDATA[ST Cezaire ouest11]]></name>
    <trkseg>
      <trkpt lat="43.64743" lon="6.79213">
        <ele>447.15</ele>
        <time>2010-12-18T09:29:00Z</time>
      </trkpt>
      <trkpt lat="43.64749" lon="6.79222">
        <ele>448.11</ele>
        <time>2010-12-18T09:29:02Z</time>
      </trkpt>
      <trkpt lat="43.64777" lon="6.79245">
        <ele>443.31</ele>
        <time>2010-12-18T09:29:11Z</time>
      </trkpt>
      <trkpt lat="43.64813" lon="6.79274">
        <ele>439.46</ele>
        <time>2010-12-18T09:29:25Z</time>
      </trkpt>
      <trkpt lat="43.64816" lon="6.79282">
        <ele>443.31</ele>
        <time>2010-12-18T09:29:28Z</time>
      </trkpt>
      <trkpt lat="43.64818" lon="6.79287">
        <ele>439.46</ele>
        <time>2010-12-18T09:29:30Z</time>
      </trkpt>
      <trkpt lat="43.64819" lon="6.7929">
        <ele>439.94</ele>
        <time>2010-12-18T09:29:31Z</time>
      </trkpt>
      <trkpt lat="43.64822" lon="6.79295">
        <ele>436.58</ele>
        <time>2010-12-18T09:29:33Z</time>
      </trkpt>
      <trkpt lat="43.64822" lon="6.79297">
        <ele>437.06</ele>
        <time>2010-12-18T09:29:34Z</time>
      </trkpt>
      <trkpt lat="43.6482" lon="6.79306">
        <ele>435.61</ele>
        <time>2010-12-18T09:29:46Z</time>
      </trkpt>
      <trkpt lat="43.64818" lon="6.79306">
        <ele>435.13</ele>
        <time>2010-12-18T09:29:49Z</time>
      </trkpt>
      <trkpt lat="43.64808" lon="6.79306">
        <ele>431.77</ele>
        <time>2010-12-18T09:29:59Z</time>
      </trkpt>
      <trkpt lat="43.64775" lon="6.79277">
        <ele>428.89</ele>
        <time>2010-12-18T09:30:14Z</time>
      </trkpt>
      <trkpt lat="43.64771" lon="6.79271">
        <ele>426.48</ele>
        <time>2010-12-18T09:30:29Z</time>
      </trkpt>
      <trkpt lat="43.6477" lon="6.79268">
        <ele>429.37</ele>
        <time>2010-12-18T09:30:35Z</time>
      </trkpt>
      <trkpt lat="43.64769" lon="6.79266">
        <ele>429.85</ele>
        <time>2010-12-18T09:30:40Z</time>
      </trkpt>
      <trkpt lat="43.64769" lon="6.79266">
        <ele>426</ele>
        <time>2010-12-18T09:30:41Z</time>
      </trkpt>
      <trkpt lat="43.64769" lon="6.79266">
        <ele>429.85</ele>
        <time>2010-12-18T09:30:42Z</time>
      </trkpt>
      <trkpt lat="43.64769" lon="6.79266">
        <ele>426.96</ele>
        <time>2010-12-18T09:30:44Z</time>
      </trkpt>
      <trkpt lat="43.64768" lon="6.79267">
        <ele>428.4</ele>
        <time>2010-12-18T09:30:50Z</time>
      </trkpt>
      <trkpt lat="43.64764" lon="6.79264">
        <ele>428.4</ele>
        <time>2010-12-18T09:30:52Z</time>
      </trkpt>
      <trkpt lat="43.64757" lon="6.79258">
        <ele>426</ele>
        <time>2010-12-18T09:30:56Z</time>
      </trkpt>
      <trkpt lat="43.64743" lon="6.79245">
        <ele>423.12</ele>
        <time>2010-12-18T09:31:09Z</time>
      </trkpt>
      <trkpt lat="43.64727" lon="6.79233">
        <ele>420.23</ele>
        <time>2010-12-18T09:31:22Z</time>
      </trkpt>
      <trkpt lat="43.64719" lon="6.79227">
        <ele>419.75</ele>
        <time>2010-12-18T09:31:28Z</time>
      </trkpt>
      <trkpt lat="43.64705" lon="6.79221">
        <ele>417.35</ele>
        <time>2010-12-18T09:31:42Z</time>
      </trkpt>
      <trkpt lat="43.64687" lon="6.79218">
        <ele>415.43</ele>
        <time>2010-12-18T09:31:57Z</time>
      </trkpt>
      <trkpt lat="43.64674" lon="6.79208">
        <ele>413.5</ele>
        <time>2010-12-18T09:32:08Z</time>
      </trkpt>
      <trkpt lat="43.64667" lon="6.79205">
        <ele>412.54</ele>
        <time>2010-12-18T09:32:14Z</time>
      </trkpt>
      <trkpt lat="43.6465" lon="6.79206">
        <ele>409.18</ele>
        <time>2010-12-18T09:32:27Z</time>
      </trkpt>
      <trkpt lat="43.64637" lon="6.79206">
        <ele>406.29</ele>
        <time>2010-12-18T09:32:40Z</time>
      </trkpt>
      <trkpt lat="43.64632" lon="6.79204">
        <ele>404.85</ele>
        <time>2010-12-18T09:32:49Z</time>
      </trkpt>
      <trkpt lat="43.64631" lon="6.79205">
        <ele>404.37</ele>
        <time>2010-12-18T09:32:51Z</time>
      </trkpt>
      <trkpt lat="43.64629" lon="6.79203">
        <ele>402.93</ele>
        <time>2010-12-18T09:33:01Z</time>
      </trkpt>
      <trkpt lat="43.64618" lon="6.79213">
        <ele>400.05</ele>
        <time>2010-12-18T09:33:15Z</time>
      </trkpt>
      <trkpt lat="43.64615" lon="6.79217">
        <ele>398.12</ele>
        <time>2010-12-18T09:33:21Z</time>
      </trkpt>
      <trkpt lat="43.6461" lon="6.79217">
        <ele>397.64</ele>
        <time>2010-12-18T09:33:26Z</time>
      </trkpt>
      <trkpt lat="43.64608" lon="6.79214">
        <ele>396.2</ele>
        <time>2010-12-18T09:33:30Z</time>
      </trkpt>
      <trkpt lat="43.64593" lon="6.79221">
        <ele>394.28</ele>
        <time>2010-12-18T09:33:45Z</time>
      </trkpt>
      <trkpt lat="43.64584" lon="6.79225">
        <ele>391.39</ele>
        <time>2010-12-18T09:33:57Z</time>
      </trkpt>
      <trkpt lat="43.6458" lon="6.79228">
        <ele>391.39</ele>
        <time>2010-12-18T09:34:06Z</time>
      </trkpt>
      <trkpt lat="43.64577" lon="6.79231">
        <ele>389.47</ele>
        <time>2010-12-18T09:34:09Z</time>
      </trkpt>
      <trkpt lat="43.64576" lon="6.79232">
        <ele>388.99</ele>
        <time>2010-12-18T09:34:10Z</time>
      </trkpt>
      <trkpt lat="43.64567" lon="6.79247">
        <ele>385.63</ele>
        <time>2010-12-18T09:34:21Z</time>
      </trkpt>
      <trkpt lat="43.64566" lon="6.79249">
        <ele>387.07</ele>
        <time>2010-12-18T09:34:25Z</time>
      </trkpt>
      <trkpt lat="43.64563" lon="6.79249">
        <ele>388.99</ele>
        <time>2010-12-18T09:34:27Z</time>
      </trkpt>
      <trkpt lat="43.64563" lon="6.79249">
        <ele>378.9</ele>
        <time>2010-12-18T09:34:28Z</time>
      </trkpt>
      <trkpt lat="43.64561" lon="6.79249">
        <ele>387.55</ele>
        <time>2010-12-18T09:34:29Z</time>
      </trkpt>
      <trkpt lat="43.6456" lon="6.79249">
        <ele>385.15</ele>
        <time>2010-12-18T09:34:30Z</time>
      </trkpt>
      <trkpt lat="43.64552" lon="6.79249">
        <ele>383.22</ele>
        <time>2010-12-18T09:34:36Z</time>
      </trkpt>
      <trkpt lat="43.64542" lon="6.79251">
        <ele>379.86</ele>
        <time>2010-12-18T09:34:48Z</time>
      </trkpt>
      <trkpt lat="43.64528" lon="6.79258">
        <ele>378.42</ele>
        <time>2010-12-18T09:35:00Z</time>
      </trkpt>
      <trkpt lat="43.64522" lon="6.79261">
        <ele>376.97</ele>
        <time>2010-12-18T09:35:06Z</time>
      </trkpt>
      <trkpt lat="43.64516" lon="6.7928">
        <ele>374.57</ele>
        <time>2010-12-18T09:35:20Z</time>
      </trkpt>
      <trkpt lat="43.64515" lon="6.79282">
        <ele>374.09</ele>
        <time>2010-12-18T09:35:22Z</time>
      </trkpt>
      <trkpt lat="43.64513" lon="6.79304">
        <ele>370.73</ele>
        <time>2010-12-18T09:35:36Z</time>
      </trkpt>
      <trkpt lat="43.64505" lon="6.79318">
        <ele>368.32</ele>
        <time>2010-12-18T09:35:50Z</time>
      </trkpt>
      <trkpt lat="43.64502" lon="6.79329">
        <ele>366.4</ele>
        <time>2010-12-18T09:36:03Z</time>
      </trkpt>
      <trkpt lat="43.64497" lon="6.79349">
        <ele>364.48</ele>
        <time>2010-12-18T09:36:18Z</time>
      </trkpt>
      <trkpt lat="43.64488" lon="6.79369">
        <ele>363.04</ele>
        <time>2010-12-18T09:36:31Z</time>
      </trkpt>
      <trkpt lat="43.64484" lon="6.79375">
        <ele>363.04</ele>
        <time>2010-12-18T09:36:36Z</time>
      </trkpt>
      <trkpt lat="43.64475" lon="6.79383">
        <ele>362.55</ele>
        <time>2010-12-18T09:36:44Z</time>
      </trkpt>
      <trkpt lat="43.64471" lon="6.79396">
        <ele>363.04</ele>
        <time>2010-12-18T09:36:54Z</time>
      </trkpt>
      <trkpt lat="43.64463" lon="6.79403">
        <ele>362.07</ele>
        <time>2010-12-18T09:37:08Z</time>
      </trkpt>
      <trkpt lat="43.64462" lon="6.79403">
        <ele>361.59</ele>
        <time>2010-12-18T09:37:29Z</time>
      </trkpt>
      <trkpt lat="43.64462" lon="6.79403">
        <ele>361.11</ele>
        <time>2010-12-18T09:37:50Z</time>
      </trkpt>
      <trkpt lat="43.64462" lon="6.79403">
        <ele>361.11</ele>
        <time>2010-12-18T09:38:11Z</time>
      </trkpt>
      <trkpt lat="43.64454" lon="6.79404">
        <ele>361.11</ele>
        <time>2010-12-18T09:38:30Z</time>
      </trkpt>
      <trkpt lat="43.64437" lon="6.79406">
        <ele>358.71</ele>
        <time>2010-12-18T09:38:44Z</time>
      </trkpt>
      <trkpt lat="43.64433" lon="6.79408">
        <ele>358.23</ele>
        <time>2010-12-18T09:38:47Z</time>
      </trkpt>
      <trkpt lat="43.64415" lon="6.79406">
        <ele>354.86</ele>
        <time>2010-12-18T09:38:59Z</time>
      </trkpt>
      <trkpt lat="43.6441" lon="6.79407">
        <ele>353.9</ele>
        <time>2010-12-18T09:39:03Z</time>
      </trkpt>
      <trkpt lat="43.64391" lon="6.79407">
        <ele>350.54</ele>
        <time>2010-12-18T09:39:17Z</time>
      </trkpt>
      <trkpt lat="43.6438" lon="6.79408">
        <ele>348.13</ele>
        <time>2010-12-18T09:39:26Z</time>
      </trkpt>
      <trkpt lat="43.64366" lon="6.79422">
        <ele>344.77</ele>
        <time>2010-12-18T09:39:41Z</time>
      </trkpt>
      <trkpt lat="43.64356" lon="6.79438">
        <ele>343.33</ele>
        <time>2010-12-18T09:39:54Z</time>
      </trkpt>
      <trkpt lat="43.64341" lon="6.79448">
        <ele>339.96</ele>
        <time>2010-12-18T09:40:07Z</time>
      </trkpt>
      <trkpt lat="43.64338" lon="6.79449">
        <ele>339</ele>
        <time>2010-12-18T09:40:09Z</time>
      </trkpt>
      <trkpt lat="43.64334" lon="6.79465">
        <ele>337.08</ele>
        <time>2010-12-18T09:40:20Z</time>
      </trkpt>
      <trkpt lat="43.64327" lon="6.79476">
        <ele>334.68</ele>
        <time>2010-12-18T09:40:30Z</time>
      </trkpt>
      <trkpt lat="43.64323" lon="6.79488">
        <ele>332.75</ele>
        <time>2010-12-18T09:40:38Z</time>
      </trkpt>
      <trkpt lat="43.64314" lon="6.79512">
        <ele>329.87</ele>
        <time>2010-12-18T09:40:52Z</time>
      </trkpt>
      <trkpt lat="43.64309" lon="6.79529">
        <ele>327.95</ele>
        <time>2010-12-18T09:41:04Z</time>
      </trkpt>
      <trkpt lat="43.64309" lon="6.7953">
        <ele>327.95</ele>
        <time>2010-12-18T09:41:05Z</time>
      </trkpt>
      <trkpt lat="43.64297" lon="6.7955">
        <ele>326.5</ele>
        <time>2010-12-18T09:41:20Z</time>
      </trkpt>
      <trkpt lat="43.6428" lon="6.79552">
        <ele>326.02</ele>
        <time>2010-12-18T09:41:34Z</time>
      </trkpt>
      <trkpt lat="43.64276" lon="6.79551">
        <ele>326.02</ele>
        <time>2010-12-18T09:41:36Z</time>
      </trkpt>
      <trkpt lat="43.64264" lon="6.79553">
        <ele>326.5</ele>
        <time>2010-12-18T09:41:45Z</time>
      </trkpt>
      <trkpt lat="43.64247" lon="6.7956">
        <ele>325.54</ele>
        <time>2010-12-18T09:41:59Z</time>
      </trkpt>
      <trkpt lat="43.64232" lon="6.79566">
        <ele>326.02</ele>
        <time>2010-12-18T09:42:14Z</time>
      </trkpt>
      <trkpt lat="43.64232" lon="6.79568">
        <ele>326.02</ele>
        <time>2010-12-18T09:42:15Z</time>
      </trkpt>
      <trkpt lat="43.6423" lon="6.79575">
        <ele>325.54</ele>
        <time>2010-12-18T09:42:21Z</time>
      </trkpt>
      <trkpt lat="43.64225" lon="6.79582">
        <ele>324.1</ele>
        <time>2010-12-18T09:42:28Z</time>
      </trkpt>
      <trkpt lat="43.64222" lon="6.79585">
        <ele>324.58</ele>
        <time>2010-12-18T09:42:31Z</time>
      </trkpt>
      <trkpt lat="43.64217" lon="6.796">
        <ele>321.22</ele>
        <time>2010-12-18T09:42:43Z</time>
      </trkpt>
      <trkpt lat="43.64216" lon="6.79601">
        <ele>321.22</ele>
        <time>2010-12-18T09:42:45Z</time>
      </trkpt>
      <trkpt lat="43.64213" lon="6.79606">
        <ele>320.26</ele>
        <time>2010-12-18T09:42:49Z</time>
      </trkpt>
      <trkpt lat="43.6421" lon="6.79613">
        <ele>319.78</ele>
        <time>2010-12-18T09:43:05Z</time>
      </trkpt>
      <trkpt lat="43.64207" lon="6.79615">
        <ele>319.3</ele>
        <time>2010-12-18T09:43:29Z</time>
      </trkpt>
      <trkpt lat="43.64193" lon="6.79622">
        <ele>315.93</ele>
        <time>2010-12-18T09:43:43Z</time>
      </trkpt>
      <trkpt lat="43.64188" lon="6.79624">
        <ele>315.45</ele>
        <time>2010-12-18T09:43:47Z</time>
      </trkpt>
      <trkpt lat="43.64172" lon="6.79628">
        <ele>313.53</ele>
        <time>2010-12-18T09:44:03Z</time>
      </trkpt>
      <trkpt lat="43.64157" lon="6.79626">
        <ele>312.57</ele>
        <time>2010-12-18T09:44:17Z</time>
      </trkpt>
      <trkpt lat="43.64142" lon="6.79625">
        <ele>312.09</ele>
        <time>2010-12-18T09:44:31Z</time>
      </trkpt>
      <trkpt lat="43.64138" lon="6.79621">
        <ele>310.64</ele>
        <time>2010-12-18T09:44:35Z</time>
      </trkpt>
      <trkpt lat="43.64125" lon="6.79621">
        <ele>308.24</ele>
        <time>2010-12-18T09:44:52Z</time>
      </trkpt>
      <trkpt lat="43.64125" lon="6.79621">
        <ele>307.76</ele>
        <time>2010-12-18T09:45:04Z</time>
      </trkpt>
      <trkpt lat="43.64122" lon="6.79623">
        <ele>307.28</ele>
        <time>2010-12-18T09:45:07Z</time>
      </trkpt>
      <trkpt lat="43.6412" lon="6.79622">
        <ele>307.28</ele>
        <time>2010-12-18T09:45:09Z</time>
      </trkpt>
      <trkpt lat="43.64116" lon="6.79621">
        <ele>306.8</ele>
        <time>2010-12-18T09:45:12Z</time>
      </trkpt>
      <trkpt lat="43.64114" lon="6.79619">
        <ele>306.32</ele>
        <time>2010-12-18T09:45:14Z</time>
      </trkpt>
      <trkpt lat="43.64101" lon="6.79623">
        <ele>304.39</ele>
        <time>2010-12-18T09:45:28Z</time>
      </trkpt>
      <trkpt lat="43.64088" lon="6.79622">
        <ele>301.03</ele>
        <time>2010-12-18T09:45:42Z</time>
      </trkpt>
      <trkpt lat="43.64081" lon="6.79619">
        <ele>301.03</ele>
        <time>2010-12-18T09:45:47Z</time>
      </trkpt>
      <trkpt lat="43.64074" lon="6.79624">
        <ele>299.11</ele>
        <time>2010-12-18T09:45:55Z</time>
      </trkpt>
      <trkpt lat="43.64071" lon="6.79624">
        <ele>298.15</ele>
        <time>2010-12-18T09:45:59Z</time>
      </trkpt>
      <trkpt lat="43.64064" lon="6.7963">
        <ele>297.67</ele>
        <time>2010-12-18T09:46:08Z</time>
      </trkpt>
      <trkpt lat="43.64053" lon="6.79645">
        <ele>295.26</ele>
        <time>2010-12-18T09:46:23Z</time>
      </trkpt>
      <trkpt lat="43.64053" lon="6.79645">
        <ele>295.26</ele>
        <time>2010-12-18T09:46:24Z</time>
      </trkpt>
      <trkpt lat="43.6404" lon="6.79649">
        <ele>293.82</ele>
        <time>2010-12-18T09:46:34Z</time>
      </trkpt>
      <trkpt lat="43.64031" lon="6.79647">
        <ele>293.34</ele>
        <time>2010-12-18T09:46:41Z</time>
      </trkpt>
      <trkpt lat="43.64017" lon="6.79655">
        <ele>290.46</ele>
        <time>2010-12-18T09:46:55Z</time>
      </trkpt>
      <trkpt lat="43.64012" lon="6.79658">
        <ele>289.01</ele>
        <time>2010-12-18T09:47:12Z</time>
      </trkpt>
      <trkpt lat="43.64012" lon="6.79658">
        <ele>288.05</ele>
        <time>2010-12-18T09:47:21Z</time>
      </trkpt>
      <trkpt lat="43.64006" lon="6.79667">
        <ele>287.57</ele>
        <time>2010-12-18T09:47:28Z</time>
      </trkpt>
      <trkpt lat="43.63991" lon="6.79674">
        <ele>287.09</ele>
        <time>2010-12-18T09:47:42Z</time>
      </trkpt>
      <trkpt lat="43.63983" lon="6.79688">
        <ele>288.05</ele>
        <time>2010-12-18T09:47:58Z</time>
      </trkpt>
      <trkpt lat="43.63981" lon="6.79689">
        <ele>288.05</ele>
        <time>2010-12-18T09:48:00Z</time>
      </trkpt>
      <trkpt lat="43.6398" lon="6.79692">
        <ele>288.05</ele>
        <time>2010-12-18T09:48:19Z</time>
      </trkpt>
      <trkpt lat="43.6398" lon="6.79692">
        <ele>287.57</ele>
        <time>2010-12-18T09:48:29Z</time>
      </trkpt>
      <trkpt lat="43.63986" lon="6.7969">
        <ele>288.05</ele>
        <time>2010-12-18T09:48:43Z</time>
      </trkpt>
      <trkpt lat="43.63988" lon="6.79685">
        <ele>288.05</ele>
        <time>2010-12-18T09:48:50Z</time>
      </trkpt>
      <trkpt lat="43.63996" lon="6.79674">
        <ele>287.57</ele>
        <time>2010-12-18T09:48:58Z</time>
      </trkpt>
      <trkpt lat="43.64006" lon="6.79669">
        <ele>288.05</ele>
        <time>2010-12-18T09:49:13Z</time>
      </trkpt>
      <trkpt lat="43.64013" lon="6.79664">
        <ele>289.97</ele>
        <time>2010-12-18T09:49:27Z</time>
      </trkpt>
      <trkpt lat="43.64016" lon="6.79655">
        <ele>287.09</ele>
        <time>2010-12-18T09:49:41Z</time>
      </trkpt>
      <trkpt lat="43.64016" lon="6.79655">
        <ele>287.09</ele>
        <time>2010-12-18T09:49:42Z</time>
      </trkpt>
      <trkpt lat="43.64027" lon="6.79647">
        <ele>285.65</ele>
        <time>2010-12-18T09:49:50Z</time>
      </trkpt>
      <trkpt lat="43.64032" lon="6.79644">
        <ele>284.69</ele>
        <time>2010-12-18T09:49:53Z</time>
      </trkpt>
      <trkpt lat="43.6404" lon="6.79638">
        <ele>283.25</ele>
        <time>2010-12-18T09:50:01Z</time>
      </trkpt>
      <trkpt lat="43.64043" lon="6.79636">
        <ele>282.28</ele>
        <time>2010-12-18T09:50:07Z</time>
      </trkpt>
      <trkpt lat="43.64046" lon="6.79633">
        <ele>281.32</ele>
        <time>2010-12-18T09:50:10Z</time>
      </trkpt>
      <trkpt lat="43.64048" lon="6.79629">
        <ele>281.32</ele>
        <time>2010-12-18T09:50:14Z</time>
      </trkpt>
      <trkpt lat="43.64054" lon="6.79618">
        <ele>279.4</ele>
        <time>2010-12-18T09:50:25Z</time>
      </trkpt>
      <trkpt lat="43.64058" lon="6.79615">
        <ele>278.44</ele>
        <time>2010-12-18T09:50:31Z</time>
      </trkpt>
      <trkpt lat="43.64064" lon="6.79607">
        <ele>276.04</ele>
        <time>2010-12-18T09:50:43Z</time>
      </trkpt>
      <trkpt lat="43.64068" lon="6.79603">
        <ele>275.07</ele>
        <time>2010-12-18T09:50:48Z</time>
      </trkpt>
      <trkpt lat="43.64071" lon="6.79589">
        <ele>273.63</ele>
        <time>2010-12-18T09:50:56Z</time>
      </trkpt>
      <trkpt lat="43.64074" lon="6.7958">
        <ele>270.75</ele>
        <time>2010-12-18T09:51:09Z</time>
      </trkpt>
      <trkpt lat="43.64075" lon="6.79579">
        <ele>269.31</ele>
        <time>2010-12-18T09:51:19Z</time>
      </trkpt>
      <trkpt lat="43.6408" lon="6.79578">
        <ele>268.35</ele>
        <time>2010-12-18T09:51:22Z</time>
      </trkpt>
      <trkpt lat="43.64087" lon="6.7956">
        <ele>265.46</ele>
        <time>2010-12-18T09:51:36Z</time>
      </trkpt>
      <trkpt lat="43.64088" lon="6.79559">
        <ele>265.94</ele>
        <time>2010-12-18T09:51:37Z</time>
      </trkpt>
      <trkpt lat="43.64085" lon="6.79559">
        <ele>265.46</ele>
        <time>2010-12-18T09:51:45Z</time>
      </trkpt>
      <trkpt lat="43.64087" lon="6.79549">
        <ele>262.58</ele>
        <time>2010-12-18T09:52:00Z</time>
      </trkpt>
      <trkpt lat="43.64089" lon="6.7955">
        <ele>261.62</ele>
        <time>2010-12-18T09:52:02Z</time>
      </trkpt>
      <trkpt lat="43.64093" lon="6.79547">
        <ele>261.14</ele>
        <time>2010-12-18T09:52:07Z</time>
      </trkpt>
      <trkpt lat="43.64103" lon="6.79536">
        <ele>259.21</ele>
        <time>2010-12-18T09:52:21Z</time>
      </trkpt>
      <trkpt lat="43.64108" lon="6.79535">
        <ele>258.73</ele>
        <time>2010-12-18T09:52:25Z</time>
      </trkpt>
      <trkpt lat="43.64113" lon="6.79528">
        <ele>256.81</ele>
        <time>2010-12-18T09:52:35Z</time>
      </trkpt>
      <trkpt lat="43.64104" lon="6.79528">
        <ele>255.37</ele>
        <time>2010-12-18T09:52:43Z</time>
      </trkpt>
      <trkpt lat="43.64098" lon="6.7953">
        <ele>254.41</ele>
        <time>2010-12-18T09:52:50Z</time>
      </trkpt>
      <trkpt lat="43.64096" lon="6.79529">
        <ele>253.44</ele>
        <time>2010-12-18T09:52:53Z</time>
      </trkpt>
      <trkpt lat="43.64085" lon="6.79531">
        <ele>251.52</ele>
        <time>2010-12-18T09:53:07Z</time>
      </trkpt>
      <trkpt lat="43.64088" lon="6.79523">
        <ele>250.08</ele>
        <time>2010-12-18T09:53:15Z</time>
      </trkpt>
      <trkpt lat="43.64095" lon="6.79515">
        <ele>248.64</ele>
        <time>2010-12-18T09:53:26Z</time>
      </trkpt>
      <trkpt lat="43.64112" lon="6.79508">
        <ele>247.68</ele>
        <time>2010-12-18T09:53:38Z</time>
      </trkpt>
      <trkpt lat="43.64118" lon="6.79503">
        <ele>246.23</ele>
        <time>2010-12-18T09:53:44Z</time>
      </trkpt>
      <trkpt lat="43.64122" lon="6.79502">
        <ele>244.79</ele>
        <time>2010-12-18T09:53:51Z</time>
      </trkpt>
      <trkpt lat="43.64129" lon="6.79505">
        <ele>243.35</ele>
        <time>2010-12-18T09:54:01Z</time>
      </trkpt>
      <trkpt lat="43.64144" lon="6.79489">
        <ele>241.91</ele>
        <time>2010-12-18T09:54:16Z</time>
      </trkpt>
      <trkpt lat="43.64139" lon="6.7948">
        <ele>240.47</ele>
        <time>2010-12-18T09:54:28Z</time>
      </trkpt>
      <trkpt lat="43.64139" lon="6.79479">
        <ele>240.47</ele>
        <time>2010-12-18T09:54:43Z</time>
      </trkpt>
      <trkpt lat="43.64139" lon="6.79479">
        <ele>240.47</ele>
        <time>2010-12-18T09:55:11Z</time>
      </trkpt>
      <trkpt lat="43.64139" lon="6.7948">
        <ele>240.47</ele>
        <time>2010-12-18T09:55:34Z</time>
      </trkpt>
      <trkpt lat="43.64139" lon="6.7948">
        <ele>239.99</ele>
        <time>2010-12-18T09:56:01Z</time>
      </trkpt>
      <trkpt lat="43.64139" lon="6.7948">
        <ele>240.47</ele>
        <time>2010-12-18T09:56:17Z</time>
      </trkpt>
      <trkpt lat="43.6414" lon="6.7948">
        <ele>240.95</ele>
        <time>2010-12-18T09:56:38Z</time>
      </trkpt>
      <trkpt lat="43.64142" lon="6.79478">
        <ele>240.47</ele>
        <time>2010-12-18T09:57:04Z</time>
      </trkpt>
      <trkpt lat="43.64151" lon="6.79464">
        <ele>238.06</ele>
        <time>2010-12-18T09:57:18Z</time>
      </trkpt>
      <trkpt lat="43.64152" lon="6.79461">
        <ele>237.58</ele>
        <time>2010-12-18T09:57:20Z</time>
      </trkpt>
      <trkpt lat="43.64153" lon="6.79449">
        <ele>236.14</ele>
        <time>2010-12-18T09:57:28Z</time>
      </trkpt>
      <trkpt lat="43.64158" lon="6.79428">
        <ele>232.78</ele>
        <time>2010-12-18T09:57:44Z</time>
      </trkpt>
      <trkpt lat="43.64154" lon="6.7942">
        <ele>230.85</ele>
        <time>2010-12-18T09:57:50Z</time>
      </trkpt>
      <trkpt lat="43.64157" lon="6.79408">
        <ele>229.41</ele>
        <time>2010-12-18T09:57:58Z</time>
      </trkpt>
      <trkpt lat="43.64162" lon="6.79404">
        <ele>227.97</ele>
        <time>2010-12-18T09:58:07Z</time>
      </trkpt>
      <trkpt lat="43.64171" lon="6.79402">
        <ele>224.12</ele>
        <time>2010-12-18T09:58:19Z</time>
      </trkpt>
      <trkpt lat="43.64177" lon="6.79397">
        <ele>221.72</ele>
        <time>2010-12-18T09:58:34Z</time>
      </trkpt>
      <trkpt lat="43.64172" lon="6.79392">
        <ele>218.84</ele>
        <time>2010-12-18T09:58:43Z</time>
      </trkpt>
      <trkpt lat="43.64159" lon="6.79378">
        <ele>215.95</ele>
        <time>2010-12-18T09:58:57Z</time>
      </trkpt>
      <trkpt lat="43.64162" lon="6.79372">
        <ele>214.51</ele>
        <time>2010-12-18T09:59:06Z</time>
      </trkpt>
      <trkpt lat="43.64174" lon="6.79377">
        <ele>211.15</ele>
        <time>2010-12-18T09:59:19Z</time>
      </trkpt>
      <trkpt lat="43.64174" lon="6.79377">
        <ele>211.15</ele>
        <time>2010-12-18T09:59:21Z</time>
      </trkpt>
      <trkpt lat="43.64177" lon="6.79379">
        <ele>208.74</ele>
        <time>2010-12-18T09:59:35Z</time>
      </trkpt>
      <trkpt lat="43.64177" lon="6.79373">
        <ele>206.82</ele>
        <time>2010-12-18T09:59:43Z</time>
      </trkpt>
      <trkpt lat="43.64177" lon="6.79356">
        <ele>203.94</ele>
        <time>2010-12-18T09:59:58Z</time>
      </trkpt>
      <trkpt lat="43.6418" lon="6.79358">
        <ele>202.98</ele>
        <time>2010-12-18T10:00:01Z</time>
      </trkpt>
      <trkpt lat="43.64189" lon="6.79365">
        <ele>200.57</ele>
        <time>2010-12-18T10:00:17Z</time>
      </trkpt>
      <trkpt lat="43.64191" lon="6.79365">
        <ele>199.61</ele>
        <time>2010-12-18T10:00:20Z</time>
      </trkpt>
      <trkpt lat="43.64196" lon="6.79359">
        <ele>196.73</ele>
        <time>2010-12-18T10:00:36Z</time>
      </trkpt>
      <trkpt lat="43.64191" lon="6.79352">
        <ele>194.32</ele>
        <time>2010-12-18T10:00:51Z</time>
      </trkpt>
      <trkpt lat="43.6419" lon="6.7935">
        <ele>191.92</ele>
        <time>2010-12-18T10:01:08Z</time>
      </trkpt>
      <trkpt lat="43.6419" lon="6.7935">
        <ele>191.44</ele>
        <time>2010-12-18T10:01:12Z</time>
      </trkpt>
      <trkpt lat="43.64193" lon="6.79345">
        <ele>190</ele>
        <time>2010-12-18T10:01:17Z</time>
      </trkpt>
      <trkpt lat="43.64194" lon="6.79341">
        <ele>189.52</ele>
        <time>2010-12-18T10:01:19Z</time>
      </trkpt>
      <trkpt lat="43.642" lon="6.79325">
        <ele>185.67</ele>
        <time>2010-12-18T10:01:33Z</time>
      </trkpt>
      <trkpt lat="43.64208" lon="6.79315">
        <ele>183.27</ele>
        <time>2010-12-18T10:01:46Z</time>
      </trkpt>
      <trkpt lat="43.64208" lon="6.79312">
        <ele>182.79</ele>
        <time>2010-12-18T10:01:49Z</time>
      </trkpt>
      <trkpt lat="43.64206" lon="6.79306">
        <ele>182.31</ele>
        <time>2010-12-18T10:01:54Z</time>
      </trkpt>
      <trkpt lat="43.64204" lon="6.79297">
        <ele>182.31</ele>
        <time>2010-12-18T10:02:03Z</time>
      </trkpt>
      <trkpt lat="43.64209" lon="6.79291">
        <ele>182.79</ele>
        <time>2010-12-18T10:02:09Z</time>
      </trkpt>
      <trkpt lat="43.64215" lon="6.79273">
        <ele>184.71</ele>
        <time>2010-12-18T10:02:19Z</time>
      </trkpt>
      <trkpt lat="43.64219" lon="6.79269">
        <ele>185.19</ele>
        <time>2010-12-18T10:02:23Z</time>
      </trkpt>
      <trkpt lat="43.64231" lon="6.79251">
        <ele>186.15</ele>
        <time>2010-12-18T10:02:40Z</time>
      </trkpt>
      <trkpt lat="43.64233" lon="6.79246">
        <ele>186.63</ele>
        <time>2010-12-18T10:02:44Z</time>
      </trkpt>
      <trkpt lat="43.64235" lon="6.79244">
        <ele>186.15</ele>
        <time>2010-12-18T10:02:46Z</time>
      </trkpt>
      <trkpt lat="43.64244" lon="6.79232">
        <ele>186.63</ele>
        <time>2010-12-18T10:02:54Z</time>
      </trkpt>
      <trkpt lat="43.64248" lon="6.7921">
        <ele>185.67</ele>
        <time>2010-12-18T10:03:08Z</time>
      </trkpt>
      <trkpt lat="43.64255" lon="6.79205">
        <ele>183.75</ele>
        <time>2010-12-18T10:03:19Z</time>
      </trkpt>
      <trkpt lat="43.64264" lon="6.79206">
        <ele>180.38</ele>
        <time>2010-12-18T10:03:27Z</time>
      </trkpt>
      <trkpt lat="43.64277" lon="6.79205">
        <ele>180.87</ele>
        <time>2010-12-18T10:03:39Z</time>
      </trkpt>
      <trkpt lat="43.64284" lon="6.79206">
        <ele>179.9</ele>
        <time>2010-12-18T10:03:46Z</time>
      </trkpt>
      <trkpt lat="43.64287" lon="6.79202">
        <ele>176.54</ele>
        <time>2010-12-18T10:04:01Z</time>
      </trkpt>
      <trkpt lat="43.64287" lon="6.79202">
        <ele>176.54</ele>
        <time>2010-12-18T10:04:02Z</time>
      </trkpt>
      <trkpt lat="43.64288" lon="6.79197">
        <ele>173.17</ele>
        <time>2010-12-18T10:04:15Z</time>
      </trkpt>
      <trkpt lat="43.64289" lon="6.79192">
        <ele>171.73</ele>
        <time>2010-12-18T10:04:27Z</time>
      </trkpt>
      <trkpt lat="43.64292" lon="6.7919">
        <ele>170.77</ele>
        <time>2010-12-18T10:04:38Z</time>
      </trkpt>
      <trkpt lat="43.64304" lon="6.79183">
        <ele>169.81</ele>
        <time>2010-12-18T10:04:55Z</time>
      </trkpt>
      <trkpt lat="43.64301" lon="6.79161">
        <ele>169.33</ele>
        <time>2010-12-18T10:04:58Z</time>
      </trkpt>
      <trkpt lat="43.64305" lon="6.79146">
        <ele>167.89</ele>
        <time>2010-12-18T10:05:17Z</time>
      </trkpt>
      <trkpt lat="43.64305" lon="6.79145">
        <ele>166.45</ele>
        <time>2010-12-18T10:05:21Z</time>
      </trkpt>
      <trkpt lat="43.64306" lon="6.79137">
        <ele>165.48</ele>
        <time>2010-12-18T10:05:27Z</time>
      </trkpt>
      <trkpt lat="43.64306" lon="6.79134">
        <ele>165.48</ele>
        <time>2010-12-18T10:05:29Z</time>
      </trkpt>
      <trkpt lat="43.64306" lon="6.7913">
        <ele>164.52</ele>
        <time>2010-12-18T10:05:44Z</time>
      </trkpt>
      <trkpt lat="43.64313" lon="6.79124">
        <ele>163.08</ele>
        <time>2010-12-18T10:05:58Z</time>
      </trkpt>
      <trkpt lat="43.64314" lon="6.79122">
        <ele>162.6</ele>
        <time>2010-12-18T10:06:17Z</time>
      </trkpt>
      <trkpt lat="43.64328" lon="6.79105">
        <ele>161.16</ele>
        <time>2010-12-18T10:06:36Z</time>
      </trkpt>
      <trkpt lat="43.64332" lon="6.79104">
        <ele>161.64</ele>
        <time>2010-12-18T10:06:55Z</time>
      </trkpt>
      <trkpt lat="43.64332" lon="6.79104">
        <ele>162.12</ele>
        <time>2010-12-18T10:07:21Z</time>
      </trkpt>
      <trkpt lat="43.64339" lon="6.79102">
        <ele>161.16</ele>
        <time>2010-12-18T10:07:43Z</time>
      </trkpt>
      <trkpt lat="43.64341" lon="6.79101">
        <ele>162.12</ele>
        <time>2010-12-18T10:07:47Z</time>
      </trkpt>
      <trkpt lat="43.64347" lon="6.79101">
        <ele>161.64</ele>
        <time>2010-12-18T10:07:52Z</time>
      </trkpt>
      <trkpt lat="43.64346" lon="6.79094">
        <ele>161.64</ele>
        <time>2010-12-18T10:07:57Z</time>
      </trkpt>
      <trkpt lat="43.64351" lon="6.79089">
        <ele>162.12</ele>
        <time>2010-12-18T10:08:01Z</time>
      </trkpt>
      <trkpt lat="43.64352" lon="6.79089">
        <ele>162.6</ele>
        <time>2010-12-18T10:08:19Z</time>
      </trkpt>
      <trkpt lat="43.64353" lon="6.79087">
        <ele>164.52</ele>
        <time>2010-12-18T10:08:40Z</time>
      </trkpt>
      <trkpt lat="43.64354" lon="6.79082">
        <ele>164.52</ele>
        <time>2010-12-18T10:08:42Z</time>
      </trkpt>
      <trkpt lat="43.64353" lon="6.79079">
        <ele>164.52</ele>
        <time>2010-12-18T10:08:45Z</time>
      </trkpt>
      <trkpt lat="43.64348" lon="6.79073">
        <ele>167.89</ele>
        <time>2010-12-18T10:08:57Z</time>
      </trkpt>
      <trkpt lat="43.64345" lon="6.79069">
        <ele>165.96</ele>
        <time>2010-12-18T10:09:15Z</time>
      </trkpt>
      <trkpt lat="43.64344" lon="6.79068">
        <ele>166.93</ele>
        <time>2010-12-18T10:09:35Z</time>
      </trkpt>
      <trkpt lat="43.64345" lon="6.79069">
        <ele>165.96</ele>
        <time>2010-12-18T10:09:46Z</time>
      </trkpt>
      <trkpt lat="43.64348" lon="6.79071">
        <ele>166.93</ele>
        <time>2010-12-18T10:10:12Z</time>
      </trkpt>
      <trkpt lat="43.64348" lon="6.79071">
        <ele>166.45</ele>
        <time>2010-12-18T10:10:36Z</time>
      </trkpt>
      <trkpt lat="43.64345" lon="6.7907">
        <ele>165.96</ele>
        <time>2010-12-18T10:10:56Z</time>
      </trkpt>
      <trkpt lat="43.64343" lon="6.79066">
        <ele>165</ele>
        <time>2010-12-18T10:11:09Z</time>
      </trkpt>
      <trkpt lat="43.64343" lon="6.79065">
        <ele>164.04</ele>
        <time>2010-12-18T10:11:12Z</time>
      </trkpt>
      <trkpt lat="43.64342" lon="6.79061">
        <ele>163.08</ele>
        <time>2010-12-18T10:11:29Z</time>
      </trkpt>
      <trkpt lat="43.64338" lon="6.79046">
        <ele>163.56</ele>
        <time>2010-12-18T10:11:46Z</time>
      </trkpt>
      <trkpt lat="43.64331" lon="6.7902">
        <ele>164.52</ele>
        <time>2010-12-18T10:12:00Z</time>
      </trkpt>
      <trkpt lat="43.6433" lon="6.79017">
        <ele>165</ele>
        <time>2010-12-18T10:12:13Z</time>
      </trkpt>
      <trkpt lat="43.64328" lon="6.79012">
        <ele>165</ele>
        <time>2010-12-18T10:12:30Z</time>
      </trkpt>
      <trkpt lat="43.64331" lon="6.79007">
        <ele>164.52</ele>
        <time>2010-12-18T10:12:35Z</time>
      </trkpt>
      <trkpt lat="43.64335" lon="6.79003">
        <ele>162.6</ele>
        <time>2010-12-18T10:12:39Z</time>
      </trkpt>
      <trkpt lat="43.64337" lon="6.79002">
        <ele>162.12</ele>
        <time>2010-12-18T10:12:41Z</time>
      </trkpt>
      <trkpt lat="43.64339" lon="6.79001">
        <ele>162.6</ele>
        <time>2010-12-18T10:13:02Z</time>
      </trkpt>
      <trkpt lat="43.64339" lon="6.79001">
        <ele>163.56</ele>
        <time>2010-12-18T10:13:08Z</time>
      </trkpt>
      <trkpt lat="43.64334" lon="6.79005">
        <ele>164.52</ele>
        <time>2010-12-18T10:13:14Z</time>
      </trkpt>
      <trkpt lat="43.64332" lon="6.79005">
        <ele>164.52</ele>
        <time>2010-12-18T10:13:19Z</time>
      </trkpt>
      <trkpt lat="43.64327" lon="6.79006">
        <ele>164.04</ele>
        <time>2010-12-18T10:13:25Z</time>
      </trkpt>
      <trkpt lat="43.64324" lon="6.79004">
        <ele>164.52</ele>
        <time>2010-12-18T10:13:29Z</time>
      </trkpt>
      <trkpt lat="43.64319" lon="6.78997">
        <ele>167.89</ele>
        <time>2010-12-18T10:13:42Z</time>
      </trkpt>
      <trkpt lat="43.64307" lon="6.78986">
        <ele>167.89</ele>
        <time>2010-12-18T10:13:56Z</time>
      </trkpt>
      <trkpt lat="43.64296" lon="6.78979">
        <ele>170.29</ele>
        <time>2010-12-18T10:14:12Z</time>
      </trkpt>
      <trkpt lat="43.64292" lon="6.78979">
        <ele>172.21</ele>
        <time>2010-12-18T10:14:17Z</time>
      </trkpt>
      <trkpt lat="43.6429" lon="6.78985">
        <ele>173.17</ele>
        <time>2010-12-18T10:14:27Z</time>
      </trkpt>
      <trkpt lat="43.64286" lon="6.78987">
        <ele>176.54</ele>
        <time>2010-12-18T10:14:47Z</time>
      </trkpt>
      <trkpt lat="43.64286" lon="6.78987">
        <ele>176.54</ele>
        <time>2010-12-18T10:14:48Z</time>
      </trkpt>
      <trkpt lat="43.64288" lon="6.78995">
        <ele>178.94</ele>
        <time>2010-12-18T10:15:03Z</time>
      </trkpt>
      <trkpt lat="43.64288" lon="6.79006">
        <ele>180.38</ele>
        <time>2010-12-18T10:15:10Z</time>
      </trkpt>
      <trkpt lat="43.64286" lon="6.79009">
        <ele>179.9</ele>
        <time>2010-12-18T10:15:13Z</time>
      </trkpt>
      <trkpt lat="43.64275" lon="6.79023">
        <ele>180.38</ele>
        <time>2010-12-18T10:15:23Z</time>
      </trkpt>
      <trkpt lat="43.64272" lon="6.79028">
        <ele>180.38</ele>
        <time>2010-12-18T10:15:34Z</time>
      </trkpt>
      <trkpt lat="43.64285" lon="6.79012">
        <ele>179.42</ele>
        <time>2010-12-18T10:15:50Z</time>
      </trkpt>
      <trkpt lat="43.64283" lon="6.79012">
        <ele>180.38</ele>
        <time>2010-12-18T10:16:07Z</time>
      </trkpt>
      <trkpt lat="43.6428" lon="6.79007">
        <ele>180.38</ele>
        <time>2010-12-18T10:16:25Z</time>
      </trkpt>
      <trkpt lat="43.64266" lon="6.78995">
        <ele>182.31</ele>
        <time>2010-12-18T10:16:42Z</time>
      </trkpt>
      <trkpt lat="43.6426" lon="6.78988">
        <ele>182.79</ele>
        <time>2010-12-18T10:16:51Z</time>
      </trkpt>
      <trkpt lat="43.64259" lon="6.78984">
        <ele>184.23</ele>
        <time>2010-12-18T10:16:58Z</time>
      </trkpt>
      <trkpt lat="43.64248" lon="6.78976">
        <ele>187.59</ele>
        <time>2010-12-18T10:17:09Z</time>
      </trkpt>
      <trkpt lat="43.64239" lon="6.78975">
        <ele>189.52</ele>
        <time>2010-12-18T10:17:20Z</time>
      </trkpt>
      <trkpt lat="43.64237" lon="6.78973">
        <ele>192.4</ele>
        <time>2010-12-18T10:17:35Z</time>
      </trkpt>
      <trkpt lat="43.64235" lon="6.78973">
        <ele>195.28</ele>
        <time>2010-12-18T10:17:47Z</time>
      </trkpt>
      <trkpt lat="43.64234" lon="6.78971">
        <ele>197.21</ele>
        <time>2010-12-18T10:18:01Z</time>
      </trkpt>
      <trkpt lat="43.64232" lon="6.78969">
        <ele>196.73</ele>
        <time>2010-12-18T10:18:02Z</time>
      </trkpt>
      <trkpt lat="43.6423" lon="6.78965">
        <ele>198.65</ele>
        <time>2010-12-18T10:18:12Z</time>
      </trkpt>
      <trkpt lat="43.64222" lon="6.7896">
        <ele>201.05</ele>
        <time>2010-12-18T10:18:30Z</time>
      </trkpt>
      <trkpt lat="43.6422" lon="6.7896">
        <ele>201.05</ele>
        <time>2010-12-18T10:18:32Z</time>
      </trkpt>
      <trkpt lat="43.64212" lon="6.7896">
        <ele>204.9</ele>
        <time>2010-12-18T10:18:48Z</time>
      </trkpt>
      <trkpt lat="43.64214" lon="6.78958">
        <ele>205.38</ele>
        <time>2010-12-18T10:18:52Z</time>
      </trkpt>
      <trkpt lat="43.64225" lon="6.78948">
        <ele>207.3</ele>
        <time>2010-12-18T10:19:06Z</time>
      </trkpt>
      <trkpt lat="43.64224" lon="6.78945">
        <ele>207.78</ele>
        <time>2010-12-18T10:19:09Z</time>
      </trkpt>
      <trkpt lat="43.6422" lon="6.78939">
        <ele>212.11</ele>
        <time>2010-12-18T10:19:24Z</time>
      </trkpt>
      <trkpt lat="43.6422" lon="6.78937">
        <ele>210.67</ele>
        <time>2010-12-18T10:19:25Z</time>
      </trkpt>
      <trkpt lat="43.64226" lon="6.78923">
        <ele>213.55</ele>
        <time>2010-12-18T10:19:38Z</time>
      </trkpt>
      <trkpt lat="43.64228" lon="6.78909">
        <ele>215.95</ele>
        <time>2010-12-18T10:19:52Z</time>
      </trkpt>
      <trkpt lat="43.64232" lon="6.78896">
        <ele>217.88</ele>
        <time>2010-12-18T10:20:06Z</time>
      </trkpt>
      <trkpt lat="43.64237" lon="6.78882">
        <ele>220.28</ele>
        <time>2010-12-18T10:20:21Z</time>
      </trkpt>
      <trkpt lat="43.64238" lon="6.78873">
        <ele>222.2</ele>
        <time>2010-12-18T10:20:35Z</time>
      </trkpt>
      <trkpt lat="43.64241" lon="6.78856">
        <ele>224.61</ele>
        <time>2010-12-18T10:20:49Z</time>
      </trkpt>
      <trkpt lat="43.64244" lon="6.78846">
        <ele>226.05</ele>
        <time>2010-12-18T10:20:59Z</time>
      </trkpt>
      <trkpt lat="43.64248" lon="6.78829">
        <ele>228.93</ele>
        <time>2010-12-18T10:21:15Z</time>
      </trkpt>
      <trkpt lat="43.64253" lon="6.78823">
        <ele>231.81</ele>
        <time>2010-12-18T10:21:28Z</time>
      </trkpt>
      <trkpt lat="43.64263" lon="6.78812">
        <ele>234.7</ele>
        <time>2010-12-18T10:21:45Z</time>
      </trkpt>
      <trkpt lat="43.64266" lon="6.78805">
        <ele>237.1</ele>
        <time>2010-12-18T10:21:54Z</time>
      </trkpt>
      <trkpt lat="43.64267" lon="6.78803">
        <ele>236.14</ele>
        <time>2010-12-18T10:21:56Z</time>
      </trkpt>
      <trkpt lat="43.64271" lon="6.788">
        <ele>236.62</ele>
        <time>2010-12-18T10:22:00Z</time>
      </trkpt>
      <trkpt lat="43.64277" lon="6.78785">
        <ele>239.02</ele>
        <time>2010-12-18T10:22:17Z</time>
      </trkpt>
      <trkpt lat="43.64285" lon="6.78774">
        <ele>240.95</ele>
        <time>2010-12-18T10:22:31Z</time>
      </trkpt>
      <trkpt lat="43.64283" lon="6.78771">
        <ele>243.35</ele>
        <time>2010-12-18T10:22:47Z</time>
      </trkpt>
      <trkpt lat="43.64281" lon="6.78771">
        <ele>243.35</ele>
        <time>2010-12-18T10:22:54Z</time>
      </trkpt>
      <trkpt lat="43.64279" lon="6.78772">
        <ele>243.35</ele>
        <time>2010-12-18T10:22:57Z</time>
      </trkpt>
      <trkpt lat="43.64274" lon="6.78762">
        <ele>246.72</ele>
        <time>2010-12-18T10:23:12Z</time>
      </trkpt>
      <trkpt lat="43.64278" lon="6.78752">
        <ele>249.6</ele>
        <time>2010-12-18T10:23:27Z</time>
      </trkpt>
      <trkpt lat="43.64277" lon="6.78745">
        <ele>252.48</ele>
        <time>2010-12-18T10:23:42Z</time>
      </trkpt>
      <trkpt lat="43.64272" lon="6.78743">
        <ele>255.37</ele>
        <time>2010-12-18T10:23:58Z</time>
      </trkpt>
      <trkpt lat="43.64272" lon="6.78738">
        <ele>257.77</ele>
        <time>2010-12-18T10:24:09Z</time>
      </trkpt>
      <trkpt lat="43.64275" lon="6.78733">
        <ele>260.17</ele>
        <time>2010-12-18T10:24:25Z</time>
      </trkpt>
      <trkpt lat="43.64277" lon="6.7873">
        <ele>257.77</ele>
        <time>2010-12-18T10:24:31Z</time>
      </trkpt>
      <trkpt lat="43.64278" lon="6.78728">
        <ele>257.29</ele>
        <time>2010-12-18T10:24:33Z</time>
      </trkpt>
      <trkpt lat="43.64279" lon="6.78727">
        <ele>262.1</ele>
        <time>2010-12-18T10:24:34Z</time>
      </trkpt>
      <trkpt lat="43.64282" lon="6.78719">
        <ele>263.06</ele>
        <time>2010-12-18T10:24:43Z</time>
      </trkpt>
      <trkpt lat="43.64285" lon="6.7871">
        <ele>264.98</ele>
        <time>2010-12-18T10:24:59Z</time>
      </trkpt>
      <trkpt lat="43.64286" lon="6.78708">
        <ele>265.94</ele>
        <time>2010-12-18T10:25:17Z</time>
      </trkpt>
      <trkpt lat="43.64287" lon="6.78701">
        <ele>266.9</ele>
        <time>2010-12-18T10:25:24Z</time>
      </trkpt>
      <trkpt lat="43.64289" lon="6.78693">
        <ele>268.83</ele>
        <time>2010-12-18T10:25:29Z</time>
      </trkpt>
      <trkpt lat="43.6429" lon="6.78691">
        <ele>267.86</ele>
        <time>2010-12-18T10:25:31Z</time>
      </trkpt>
      <trkpt lat="43.64291" lon="6.7869">
        <ele>269.31</ele>
        <time>2010-12-18T10:25:33Z</time>
      </trkpt>
      <trkpt lat="43.64296" lon="6.78683">
        <ele>271.71</ele>
        <time>2010-12-18T10:25:44Z</time>
      </trkpt>
      <trkpt lat="43.64298" lon="6.7868">
        <ele>272.67</ele>
        <time>2010-12-18T10:25:48Z</time>
      </trkpt>
      <trkpt lat="43.64302" lon="6.78676">
        <ele>271.71</ele>
        <time>2010-12-18T10:25:52Z</time>
      </trkpt>
      <trkpt lat="43.64305" lon="6.78672">
        <ele>271.23</ele>
        <time>2010-12-18T10:25:56Z</time>
      </trkpt>
      <trkpt lat="43.64312" lon="6.78655">
        <ele>273.15</ele>
        <time>2010-12-18T10:26:13Z</time>
      </trkpt>
      <trkpt lat="43.64317" lon="6.78648">
        <ele>276.04</ele>
        <time>2010-12-18T10:26:25Z</time>
      </trkpt>
      <trkpt lat="43.6432" lon="6.78646">
        <ele>277.48</ele>
        <time>2010-12-18T10:26:38Z</time>
      </trkpt>
      <trkpt lat="43.64324" lon="6.78641">
        <ele>277</ele>
        <time>2010-12-18T10:26:52Z</time>
      </trkpt>
      <trkpt lat="43.64323" lon="6.78642">
        <ele>277.48</ele>
        <time>2010-12-18T10:27:00Z</time>
      </trkpt>
      <trkpt lat="43.64323" lon="6.78642">
        <ele>277.96</ele>
        <time>2010-12-18T10:27:18Z</time>
      </trkpt>
      <trkpt lat="43.64323" lon="6.78642">
        <ele>276.52</ele>
        <time>2010-12-18T10:27:41Z</time>
      </trkpt>
      <trkpt lat="43.64323" lon="6.78641">
        <ele>273.15</ele>
        <time>2010-12-18T10:27:53Z</time>
      </trkpt>
      <trkpt lat="43.64323" lon="6.7864">
        <ele>280.36</ele>
        <time>2010-12-18T10:27:54Z</time>
      </trkpt>
      <trkpt lat="43.64323" lon="6.7864">
        <ele>279.4</ele>
        <time>2010-12-18T10:27:55Z</time>
      </trkpt>
      <trkpt lat="43.64323" lon="6.7864">
        <ele>276.04</ele>
        <time>2010-12-18T10:27:57Z</time>
      </trkpt>
      <trkpt lat="43.64323" lon="6.7864">
        <ele>276.04</ele>
        <time>2010-12-18T10:27:58Z</time>
      </trkpt>
      <trkpt lat="43.64323" lon="6.7864">
        <ele>277</ele>
        <time>2010-12-18T10:28:20Z</time>
      </trkpt>
      <trkpt lat="43.64323" lon="6.7864">
        <ele>277</ele>
        <time>2010-12-18T10:28:55Z</time>
      </trkpt>
      <trkpt lat="43.64323" lon="6.7864">
        <ele>277.96</ele>
        <time>2010-12-18T10:29:14Z</time>
      </trkpt>
      <trkpt lat="43.64323" lon="6.7864">
        <ele>278.44</ele>
        <time>2010-12-18T10:29:38Z</time>
      </trkpt>
      <trkpt lat="43.64323" lon="6.7864">
        <ele>278.44</ele>
        <time>2010-12-18T10:30:03Z</time>
      </trkpt>
      <trkpt lat="43.64323" lon="6.7864">
        <ele>278.44</ele>
        <time>2010-12-18T10:30:29Z</time>
      </trkpt>
      <trkpt lat="43.64323" lon="6.7864">
        <ele>277.48</ele>
        <time>2010-12-18T10:31:00Z</time>
      </trkpt>
      <trkpt lat="43.6432" lon="6.78636">
        <ele>279.4</ele>
        <time>2010-12-18T10:31:15Z</time>
      </trkpt>
      <trkpt lat="43.64311" lon="6.78635">
        <ele>281.8</ele>
        <time>2010-12-18T10:31:30Z</time>
      </trkpt>
      <trkpt lat="43.64302" lon="6.78636">
        <ele>284.69</ele>
        <time>2010-12-18T10:31:44Z</time>
      </trkpt>
      <trkpt lat="43.64306" lon="6.78628">
        <ele>286.13</ele>
        <time>2010-12-18T10:31:55Z</time>
      </trkpt>
      <trkpt lat="43.64303" lon="6.78625">
        <ele>288.05</ele>
        <time>2010-12-18T10:32:06Z</time>
      </trkpt>
      <trkpt lat="43.64301" lon="6.78627">
        <ele>288.53</ele>
        <time>2010-12-18T10:32:08Z</time>
      </trkpt>
      <trkpt lat="43.64293" lon="6.78633">
        <ele>290.46</ele>
        <time>2010-12-18T10:32:22Z</time>
      </trkpt>
      <trkpt lat="43.64292" lon="6.78633">
        <ele>291.42</ele>
        <time>2010-12-18T10:32:23Z</time>
      </trkpt>
      <trkpt lat="43.64286" lon="6.78641">
        <ele>292.86</ele>
        <time>2010-12-18T10:32:32Z</time>
      </trkpt>
      <trkpt lat="43.64282" lon="6.78644">
        <ele>294.3</ele>
        <time>2010-12-18T10:32:39Z</time>
      </trkpt>
      <trkpt lat="43.64278" lon="6.78647">
        <ele>294.78</ele>
        <time>2010-12-18T10:32:43Z</time>
      </trkpt>
      <trkpt lat="43.64274" lon="6.7865">
        <ele>295.74</ele>
        <time>2010-12-18T10:32:50Z</time>
      </trkpt>
      <trkpt lat="43.64267" lon="6.78654">
        <ele>297.18</ele>
        <time>2010-12-18T10:32:58Z</time>
      </trkpt>
      <trkpt lat="43.64259" lon="6.78656">
        <ele>298.63</ele>
        <time>2010-12-18T10:33:06Z</time>
      </trkpt>
      <trkpt lat="43.64248" lon="6.78659">
        <ele>301.51</ele>
        <time>2010-12-18T10:33:22Z</time>
      </trkpt>
      <trkpt lat="43.6424" lon="6.78659">
        <ele>303.43</ele>
        <time>2010-12-18T10:33:37Z</time>
      </trkpt>
      <trkpt lat="43.64237" lon="6.78659">
        <ele>304.39</ele>
        <time>2010-12-18T10:33:40Z</time>
      </trkpt>
      <trkpt lat="43.64232" lon="6.78664">
        <ele>305.36</ele>
        <time>2010-12-18T10:33:46Z</time>
      </trkpt>
      <trkpt lat="43.6422" lon="6.78674">
        <ele>307.28</ele>
        <time>2010-12-18T10:34:02Z</time>
      </trkpt>
      <trkpt lat="43.64211" lon="6.78681">
        <ele>309.2</ele>
        <time>2010-12-18T10:34:14Z</time>
      </trkpt>
      <trkpt lat="43.64199" lon="6.78692">
        <ele>311.6</ele>
        <time>2010-12-18T10:34:27Z</time>
      </trkpt>
      <trkpt lat="43.64193" lon="6.78698">
        <ele>313.05</ele>
        <time>2010-12-18T10:34:36Z</time>
      </trkpt>
      <trkpt lat="43.64187" lon="6.78704">
        <ele>314.49</ele>
        <time>2010-12-18T10:34:46Z</time>
      </trkpt>
      <trkpt lat="43.64179" lon="6.78717">
        <ele>316.41</ele>
        <time>2010-12-18T10:35:00Z</time>
      </trkpt>
      <trkpt lat="43.64178" lon="6.78718">
        <ele>316.89</ele>
        <time>2010-12-18T10:35:01Z</time>
      </trkpt>
      <trkpt lat="43.64168" lon="6.78732">
        <ele>318.81</ele>
        <time>2010-12-18T10:35:16Z</time>
      </trkpt>
      <trkpt lat="43.64157" lon="6.78746">
        <ele>321.7</ele>
        <time>2010-12-18T10:35:30Z</time>
      </trkpt>
      <trkpt lat="43.64156" lon="6.78747">
        <ele>329.39</ele>
        <time>2010-12-18T10:35:31Z</time>
      </trkpt>
      <trkpt lat="43.64155" lon="6.78748">
        <ele>321.7</ele>
        <time>2010-12-18T10:35:32Z</time>
      </trkpt>
      <trkpt lat="43.64143" lon="6.78758">
        <ele>323.62</ele>
        <time>2010-12-18T10:35:45Z</time>
      </trkpt>
      <trkpt lat="43.64134" lon="6.78761">
        <ele>325.54</ele>
        <time>2010-12-18T10:35:56Z</time>
      </trkpt>
      <trkpt lat="43.64128" lon="6.78763">
        <ele>328.43</ele>
        <time>2010-12-18T10:36:09Z</time>
      </trkpt>
      <trkpt lat="43.64125" lon="6.78765">
        <ele>328.43</ele>
        <time>2010-12-18T10:36:13Z</time>
      </trkpt>
      <trkpt lat="43.64125" lon="6.78766">
        <ele>328.43</ele>
        <time>2010-12-18T10:36:15Z</time>
      </trkpt>
      <trkpt lat="43.64118" lon="6.7877">
        <ele>329.39</ele>
        <time>2010-12-18T10:36:18Z</time>
      </trkpt>
      <trkpt lat="43.64105" lon="6.78774">
        <ele>331.31</ele>
        <time>2010-12-18T10:36:32Z</time>
      </trkpt>
      <trkpt lat="43.64103" lon="6.78775">
        <ele>332.27</ele>
        <time>2010-12-18T10:36:40Z</time>
      </trkpt>
      <trkpt lat="43.641" lon="6.78775">
        <ele>332.75</ele>
        <time>2010-12-18T10:36:42Z</time>
      </trkpt>
      <trkpt lat="43.64085" lon="6.78773">
        <ele>333.71</ele>
        <time>2010-12-18T10:36:56Z</time>
      </trkpt>
      <trkpt lat="43.64084" lon="6.78769">
        <ele>334.2</ele>
        <time>2010-12-18T10:37:00Z</time>
      </trkpt>
      <trkpt lat="43.6409" lon="6.7876">
        <ele>336.6</ele>
        <time>2010-12-18T10:37:14Z</time>
      </trkpt>
      <trkpt lat="43.6409" lon="6.78758">
        <ele>336.12</ele>
        <time>2010-12-18T10:37:26Z</time>
      </trkpt>
      <trkpt lat="43.6409" lon="6.78753">
        <ele>337.56</ele>
        <time>2010-12-18T10:37:40Z</time>
      </trkpt>
      <trkpt lat="43.64089" lon="6.78755">
        <ele>337.08</ele>
        <time>2010-12-18T10:37:53Z</time>
      </trkpt>
      <trkpt lat="43.64087" lon="6.78755">
        <ele>338.04</ele>
        <time>2010-12-18T10:38:12Z</time>
      </trkpt>
      <trkpt lat="43.64082" lon="6.78754">
        <ele>339</ele>
        <time>2010-12-18T10:38:19Z</time>
      </trkpt>
      <trkpt lat="43.64065" lon="6.78755">
        <ele>342.37</ele>
        <time>2010-12-18T10:38:35Z</time>
      </trkpt>
      <trkpt lat="43.64064" lon="6.78757">
        <ele>342.37</ele>
        <time>2010-12-18T10:38:37Z</time>
      </trkpt>
      <trkpt lat="43.64058" lon="6.7876">
        <ele>343.81</ele>
        <time>2010-12-18T10:38:44Z</time>
      </trkpt>
      <trkpt lat="43.64051" lon="6.78764">
        <ele>343.81</ele>
        <time>2010-12-18T10:38:53Z</time>
      </trkpt>
      <trkpt lat="43.64043" lon="6.78772">
        <ele>344.77</ele>
        <time>2010-12-18T10:39:02Z</time>
      </trkpt>
      <trkpt lat="43.64033" lon="6.78785">
        <ele>347.17</ele>
        <time>2010-12-18T10:39:17Z</time>
      </trkpt>
      <trkpt lat="43.64031" lon="6.78787">
        <ele>347.65</ele>
        <time>2010-12-18T10:39:20Z</time>
      </trkpt>
      <trkpt lat="43.64022" lon="6.78793">
        <ele>349.58</ele>
        <time>2010-12-18T10:39:35Z</time>
      </trkpt>
      <trkpt lat="43.64018" lon="6.78796">
        <ele>351.98</ele>
        <time>2010-12-18T10:39:46Z</time>
      </trkpt>
      <trkpt lat="43.64021" lon="6.78788">
        <ele>353.9</ele>
        <time>2010-12-18T10:39:55Z</time>
      </trkpt>
      <trkpt lat="43.64025" lon="6.78777">
        <ele>354.86</ele>
        <time>2010-12-18T10:40:08Z</time>
      </trkpt>
      <trkpt lat="43.64027" lon="6.78771">
        <ele>356.79</ele>
        <time>2010-12-18T10:40:20Z</time>
      </trkpt>
      <trkpt lat="43.64027" lon="6.78769">
        <ele>357.27</ele>
        <time>2010-12-18T10:40:22Z</time>
      </trkpt>
      <trkpt lat="43.64027" lon="6.78765">
        <ele>357.27</ele>
        <time>2010-12-18T10:40:40Z</time>
      </trkpt>
      <trkpt lat="43.64031" lon="6.78758">
        <ele>358.23</ele>
        <time>2010-12-18T10:40:52Z</time>
      </trkpt>
      <trkpt lat="43.64032" lon="6.78754">
        <ele>359.67</ele>
        <time>2010-12-18T10:40:55Z</time>
      </trkpt>
      <trkpt lat="43.6403" lon="6.78744">
        <ele>362.07</ele>
        <time>2010-12-18T10:41:07Z</time>
      </trkpt>
      <trkpt lat="43.64029" lon="6.78744">
        <ele>362.55</ele>
        <time>2010-12-18T10:41:08Z</time>
      </trkpt>
      <trkpt lat="43.64015" lon="6.78751">
        <ele>365.44</ele>
        <time>2010-12-18T10:41:24Z</time>
      </trkpt>
      <trkpt lat="43.64009" lon="6.78753">
        <ele>366.4</ele>
        <time>2010-12-18T10:41:31Z</time>
      </trkpt>
      <trkpt lat="43.63994" lon="6.78758">
        <ele>368.32</ele>
        <time>2010-12-18T10:41:45Z</time>
      </trkpt>
      <trkpt lat="43.63987" lon="6.78756">
        <ele>369.76</ele>
        <time>2010-12-18T10:41:58Z</time>
      </trkpt>
      <trkpt lat="43.63987" lon="6.78755">
        <ele>370.24</ele>
        <time>2010-12-18T10:41:59Z</time>
      </trkpt>
      <trkpt lat="43.63984" lon="6.78748">
        <ele>371.21</ele>
        <time>2010-12-18T10:42:06Z</time>
      </trkpt>
      <trkpt lat="43.63982" lon="6.78745">
        <ele>371.21</ele>
        <time>2010-12-18T10:42:08Z</time>
      </trkpt>
      <trkpt lat="43.6398" lon="6.78734">
        <ele>372.17</ele>
        <time>2010-12-18T10:42:17Z</time>
      </trkpt>
      <trkpt lat="43.63978" lon="6.78728">
        <ele>372.65</ele>
        <time>2010-12-18T10:42:29Z</time>
      </trkpt>
      <trkpt lat="43.63974" lon="6.7871">
        <ele>373.61</ele>
        <time>2010-12-18T10:42:42Z</time>
      </trkpt>
      <trkpt lat="43.63973" lon="6.78703">
        <ele>374.57</ele>
        <time>2010-12-18T10:42:47Z</time>
      </trkpt>
      <trkpt lat="43.63972" lon="6.78698">
        <ele>375.53</ele>
        <time>2010-12-18T10:42:50Z</time>
      </trkpt>
      <trkpt lat="43.63972" lon="6.78689">
        <ele>376.97</ele>
        <time>2010-12-18T10:43:04Z</time>
      </trkpt>
      <trkpt lat="43.63972" lon="6.78689">
        <ele>376.01</ele>
        <time>2010-12-18T10:43:22Z</time>
      </trkpt>
      <trkpt lat="43.63972" lon="6.78689">
        <ele>376.01</ele>
        <time>2010-12-18T10:43:45Z</time>
      </trkpt>
      <trkpt lat="43.63972" lon="6.78688">
        <ele>376.97</ele>
        <time>2010-12-18T10:44:17Z</time>
      </trkpt>
      <trkpt lat="43.63971" lon="6.78685">
        <ele>376.01</ele>
        <time>2010-12-18T10:44:43Z</time>
      </trkpt>
      <trkpt lat="43.6397" lon="6.78678">
        <ele>377.45</ele>
        <time>2010-12-18T10:44:48Z</time>
      </trkpt>
      <trkpt lat="43.6397" lon="6.78673">
        <ele>376.49</ele>
        <time>2010-12-18T10:44:51Z</time>
      </trkpt>
      <trkpt lat="43.63971" lon="6.78666">
        <ele>377.45</ele>
        <time>2010-12-18T10:44:55Z</time>
      </trkpt>
      <trkpt lat="43.6397" lon="6.78653">
        <ele>377.94</ele>
        <time>2010-12-18T10:45:03Z</time>
      </trkpt>
      <trkpt lat="43.6397" lon="6.78646">
        <ele>377.45</ele>
        <time>2010-12-18T10:45:07Z</time>
      </trkpt>
      <trkpt lat="43.63969" lon="6.78617">
        <ele>378.9</ele>
        <time>2010-12-18T10:45:23Z</time>
      </trkpt>
      <trkpt lat="43.63971" lon="6.78607">
        <ele>378.9</ele>
        <time>2010-12-18T10:45:29Z</time>
      </trkpt>
      <trkpt lat="43.63968" lon="6.78586">
        <ele>379.38</ele>
        <time>2010-12-18T10:45:43Z</time>
      </trkpt>
      <trkpt lat="43.63968" lon="6.78579">
        <ele>379.38</ele>
        <time>2010-12-18T10:45:47Z</time>
      </trkpt>
      <trkpt lat="43.63968" lon="6.78556">
        <ele>378.9</ele>
        <time>2010-12-18T10:46:01Z</time>
      </trkpt>
      <trkpt lat="43.63965" lon="6.78535">
        <ele>378.9</ele>
        <time>2010-12-18T10:46:14Z</time>
      </trkpt>
      <trkpt lat="43.63966" lon="6.7853">
        <ele>378.9</ele>
        <time>2010-12-18T10:46:17Z</time>
      </trkpt>
      <trkpt lat="43.63965" lon="6.7851">
        <ele>378.42</ele>
        <time>2010-12-18T10:46:30Z</time>
      </trkpt>
      <trkpt lat="43.63966" lon="6.78491">
        <ele>378.9</ele>
        <time>2010-12-18T10:46:41Z</time>
      </trkpt>
      <trkpt lat="43.63968" lon="6.78475">
        <ele>378.9</ele>
        <time>2010-12-18T10:46:50Z</time>
      </trkpt>
      <trkpt lat="43.63963" lon="6.78456">
        <ele>378.9</ele>
        <time>2010-12-18T10:47:05Z</time>
      </trkpt>
      <trkpt lat="43.6396" lon="6.78438">
        <ele>379.38</ele>
        <time>2010-12-18T10:47:18Z</time>
      </trkpt>
      <trkpt lat="43.63963" lon="6.78412">
        <ele>378.9</ele>
        <time>2010-12-18T10:47:33Z</time>
      </trkpt>
      <trkpt lat="43.63959" lon="6.78391">
        <ele>379.86</ele>
        <time>2010-12-18T10:47:46Z</time>
      </trkpt>
      <trkpt lat="43.63958" lon="6.78386">
        <ele>379.38</ele>
        <time>2010-12-18T10:47:49Z</time>
      </trkpt>
      <trkpt lat="43.63956" lon="6.78361">
        <ele>379.86</ele>
        <time>2010-12-18T10:48:03Z</time>
      </trkpt>
      <trkpt lat="43.63949" lon="6.78344">
        <ele>380.34</ele>
        <time>2010-12-18T10:48:15Z</time>
      </trkpt>
      <trkpt lat="43.6395" lon="6.78334">
        <ele>379.86</ele>
        <time>2010-12-18T10:48:22Z</time>
      </trkpt>
      <trkpt lat="43.63953" lon="6.78323">
        <ele>379.86</ele>
        <time>2010-12-18T10:48:29Z</time>
      </trkpt>
      <trkpt lat="43.6396" lon="6.78318">
        <ele>379.86</ele>
        <time>2010-12-18T10:48:35Z</time>
      </trkpt>
      <trkpt lat="43.63968" lon="6.78299">
        <ele>379.86</ele>
        <time>2010-12-18T10:48:47Z</time>
      </trkpt>
      <trkpt lat="43.63973" lon="6.78283">
        <ele>379.86</ele>
        <time>2010-12-18T10:48:57Z</time>
      </trkpt>
      <trkpt lat="43.63973" lon="6.78265">
        <ele>380.82</ele>
        <time>2010-12-18T10:49:08Z</time>
      </trkpt>
      <trkpt lat="43.63969" lon="6.7825">
        <ele>380.34</ele>
        <time>2010-12-18T10:49:17Z</time>
      </trkpt>
      <trkpt lat="43.63968" lon="6.78241">
        <ele>380.34</ele>
        <time>2010-12-18T10:49:34Z</time>
      </trkpt>
      <trkpt lat="43.63968" lon="6.78241">
        <ele>381.3</ele>
        <time>2010-12-18T10:50:01Z</time>
      </trkpt>
      <trkpt lat="43.63967" lon="6.78241">
        <ele>381.3</ele>
        <time>2010-12-18T10:50:28Z</time>
      </trkpt>
      <trkpt lat="43.63967" lon="6.7824">
        <ele>381.3</ele>
        <time>2010-12-18T10:50:53Z</time>
      </trkpt>
      <trkpt lat="43.63968" lon="6.7824">
        <ele>381.3</ele>
        <time>2010-12-18T10:51:12Z</time>
      </trkpt>
      <trkpt lat="43.63966" lon="6.7823">
        <ele>381.3</ele>
        <time>2010-12-18T10:51:18Z</time>
      </trkpt>
      <trkpt lat="43.63968" lon="6.78207">
        <ele>381.78</ele>
        <time>2010-12-18T10:51:33Z</time>
      </trkpt>
      <trkpt lat="43.63972" lon="6.78186">
        <ele>382.26</ele>
        <time>2010-12-18T10:51:47Z</time>
      </trkpt>
      <trkpt lat="43.63976" lon="6.78178">
        <ele>382.26</ele>
        <time>2010-12-18T10:51:53Z</time>
      </trkpt>
      <trkpt lat="43.63976" lon="6.78175">
        <ele>381.78</ele>
        <time>2010-12-18T10:51:55Z</time>
      </trkpt>
      <trkpt lat="43.63986" lon="6.7817">
        <ele>382.74</ele>
        <time>2010-12-18T10:52:06Z</time>
      </trkpt>
      <trkpt lat="43.63989" lon="6.78168">
        <ele>382.74</ele>
        <time>2010-12-18T10:52:09Z</time>
      </trkpt>
      <trkpt lat="43.63991" lon="6.78167">
        <ele>381.78</ele>
        <time>2010-12-18T10:52:11Z</time>
      </trkpt>
      <trkpt lat="43.63996" lon="6.78162">
        <ele>382.26</ele>
        <time>2010-12-18T10:52:15Z</time>
      </trkpt>
      <trkpt lat="43.64" lon="6.78158">
        <ele>381.78</ele>
        <time>2010-12-18T10:52:19Z</time>
      </trkpt>
      <trkpt lat="43.64016" lon="6.78145">
        <ele>382.26</ele>
        <time>2010-12-18T10:52:35Z</time>
      </trkpt>
      <trkpt lat="43.64028" lon="6.78132">
        <ele>381.3</ele>
        <time>2010-12-18T10:52:48Z</time>
      </trkpt>
      <trkpt lat="43.64042" lon="6.78126">
        <ele>381.78</ele>
        <time>2010-12-18T10:53:02Z</time>
      </trkpt>
      <trkpt lat="43.64043" lon="6.78126">
        <ele>381.3</ele>
        <time>2010-12-18T10:53:15Z</time>
      </trkpt>
      <trkpt lat="43.64044" lon="6.78126">
        <ele>380.34</ele>
        <time>2010-12-18T10:53:21Z</time>
      </trkpt>
      <trkpt lat="43.64049" lon="6.78121">
        <ele>380.34</ele>
        <time>2010-12-18T10:53:33Z</time>
      </trkpt>
      <trkpt lat="43.64049" lon="6.78121">
        <ele>379.86</ele>
        <time>2010-12-18T10:53:58Z</time>
      </trkpt>
      <trkpt lat="43.64049" lon="6.78121">
        <ele>381.3</ele>
        <time>2010-12-18T10:54:20Z</time>
      </trkpt>
      <trkpt lat="43.64049" lon="6.78122">
        <ele>380.82</ele>
        <time>2010-12-18T10:54:41Z</time>
      </trkpt>
      <trkpt lat="43.64049" lon="6.78122">
        <ele>381.3</ele>
        <time>2010-12-18T10:55:11Z</time>
      </trkpt>
      <trkpt lat="43.64049" lon="6.78122">
        <ele>381.78</ele>
        <time>2010-12-18T10:55:39Z</time>
      </trkpt>
      <trkpt lat="43.64049" lon="6.78122">
        <ele>381.78</ele>
        <time>2010-12-18T10:56:00Z</time>
      </trkpt>
      <trkpt lat="43.64049" lon="6.78122">
        <ele>382.74</ele>
        <time>2010-12-18T10:56:31Z</time>
      </trkpt>
      <trkpt lat="43.64049" lon="6.78121">
        <ele>380.82</ele>
        <time>2010-12-18T10:56:55Z</time>
      </trkpt>
      <trkpt lat="43.64048" lon="6.78122">
        <ele>381.3</ele>
        <time>2010-12-18T10:57:24Z</time>
      </trkpt>
      <trkpt lat="43.64048" lon="6.78122">
        <ele>381.3</ele>
        <time>2010-12-18T10:57:49Z</time>
      </trkpt>
      <trkpt lat="43.64049" lon="6.78122">
        <ele>381.3</ele>
        <time>2010-12-18T10:58:25Z</time>
      </trkpt>
      <trkpt lat="43.64049" lon="6.78122">
        <ele>381.3</ele>
        <time>2010-12-18T10:59:04Z</time>
      </trkpt>
      <trkpt lat="43.64049" lon="6.78121">
        <ele>380.82</ele>
        <time>2010-12-18T10:59:45Z</time>
      </trkpt>
      <trkpt lat="43.64049" lon="6.78122">
        <ele>381.78</ele>
        <time>2010-12-18T11:00:24Z</time>
      </trkpt>
      <trkpt lat="43.64049" lon="6.78122">
        <ele>381.3</ele>
        <time>2010-12-18T11:00:43Z</time>
      </trkpt>
      <trkpt lat="43.6405" lon="6.78121">
        <ele>380.82</ele>
        <time>2010-12-18T11:01:21Z</time>
      </trkpt>
      <trkpt lat="43.6405" lon="6.78122">
        <ele>380.82</ele>
        <time>2010-12-18T11:01:59Z</time>
      </trkpt>
      <trkpt lat="43.64051" lon="6.78122">
        <ele>380.82</ele>
        <time>2010-12-18T11:02:39Z</time>
      </trkpt>
      <trkpt lat="43.6405" lon="6.78122">
        <ele>381.3</ele>
        <time>2010-12-18T11:03:12Z</time>
      </trkpt>
      <trkpt lat="43.6405" lon="6.78122">
        <ele>381.78</ele>
        <time>2010-12-18T11:03:53Z</time>
      </trkpt>
      <trkpt lat="43.6405" lon="6.78122">
        <ele>381.3</ele>
        <time>2010-12-18T11:04:31Z</time>
      </trkpt>
      <trkpt lat="43.64051" lon="6.78123">
        <ele>381.3</ele>
        <time>2010-12-18T11:05:10Z</time>
      </trkpt>
      <trkpt lat="43.64051" lon="6.78122">
        <ele>380.82</ele>
        <time>2010-12-18T11:05:51Z</time>
      </trkpt>
      <trkpt lat="43.64051" lon="6.78122">
        <ele>380.82</ele>
        <time>2010-12-18T11:06:32Z</time>
      </trkpt>
      <trkpt lat="43.64051" lon="6.78122">
        <ele>380.34</ele>
        <time>2010-12-18T11:07:02Z</time>
      </trkpt>
      <trkpt lat="43.64051" lon="6.78122">
        <ele>380.82</ele>
        <time>2010-12-18T11:07:32Z</time>
      </trkpt>
      <trkpt lat="43.64051" lon="6.78122">
        <ele>380.34</ele>
        <time>2010-12-18T11:08:10Z</time>
      </trkpt>
      <trkpt lat="43.64051" lon="6.78122">
        <ele>381.3</ele>
        <time>2010-12-18T11:08:48Z</time>
      </trkpt>
      <trkpt lat="43.64051" lon="6.78122">
        <ele>379.86</ele>
        <time>2010-12-18T11:09:24Z</time>
      </trkpt>
      <trkpt lat="43.64051" lon="6.78122">
        <ele>380.82</ele>
        <time>2010-12-18T11:10:03Z</time>
      </trkpt>
      <trkpt lat="43.64051" lon="6.78122">
        <ele>380.34</ele>
        <time>2010-12-18T11:10:39Z</time>
      </trkpt>
      <trkpt lat="43.64051" lon="6.78122">
        <ele>379.86</ele>
        <time>2010-12-18T11:11:18Z</time>
      </trkpt>
      <trkpt lat="43.64051" lon="6.78121">
        <ele>379.38</ele>
        <time>2010-12-18T11:11:50Z</time>
      </trkpt>
      <trkpt lat="43.64051" lon="6.78121">
        <ele>378.9</ele>
        <time>2010-12-18T11:12:27Z</time>
      </trkpt>
      <trkpt lat="43.64051" lon="6.7812">
        <ele>379.86</ele>
        <time>2010-12-18T11:13:05Z</time>
      </trkpt>
      <trkpt lat="43.64051" lon="6.7812">
        <ele>378.9</ele>
        <time>2010-12-18T11:13:32Z</time>
      </trkpt>
      <trkpt lat="43.64051" lon="6.78121">
        <ele>379.86</ele>
        <time>2010-12-18T11:14:09Z</time>
      </trkpt>
      <trkpt lat="43.64051" lon="6.7812">
        <ele>379.38</ele>
        <time>2010-12-18T11:14:49Z</time>
      </trkpt>
      <trkpt lat="43.64051" lon="6.7812">
        <ele>379.38</ele>
        <time>2010-12-18T11:15:17Z</time>
      </trkpt>
      <trkpt lat="43.64051" lon="6.78121">
        <ele>379.38</ele>
        <time>2010-12-18T11:15:51Z</time>
      </trkpt>
      <trkpt lat="43.64051" lon="6.78121">
        <ele>379.38</ele>
        <time>2010-12-18T11:16:22Z</time>
      </trkpt>
      <trkpt lat="43.64051" lon="6.78121">
        <ele>379.86</ele>
        <time>2010-12-18T11:16:51Z</time>
      </trkpt>
      <trkpt lat="43.64051" lon="6.78121">
        <ele>379.38</ele>
        <time>2010-12-18T11:17:21Z</time>
      </trkpt>
      <trkpt lat="43.64051" lon="6.78122">
        <ele>379.38</ele>
        <time>2010-12-18T11:17:45Z</time>
      </trkpt>
      <trkpt lat="43.64051" lon="6.78121">
        <ele>379.38</ele>
        <time>2010-12-18T11:18:08Z</time>
      </trkpt>
      <trkpt lat="43.64051" lon="6.78121">
        <ele>379.86</ele>
        <time>2010-12-18T11:18:45Z</time>
      </trkpt>
      <trkpt lat="43.64051" lon="6.78121">
        <ele>379.38</ele>
        <time>2010-12-18T11:19:19Z</time>
      </trkpt>
      <trkpt lat="43.64051" lon="6.78121">
        <ele>379.38</ele>
        <time>2010-12-18T11:19:56Z</time>
      </trkpt>
      <trkpt lat="43.6405" lon="6.78121">
        <ele>379.38</ele>
        <time>2010-12-18T11:20:30Z</time>
      </trkpt>
      <trkpt lat="43.64051" lon="6.78121">
        <ele>379.38</ele>
        <time>2010-12-18T11:21:00Z</time>
      </trkpt>
      <trkpt lat="43.64051" lon="6.78121">
        <ele>378.42</ele>
        <time>2010-12-18T11:21:33Z</time>
      </trkpt>
      <trkpt lat="43.64051" lon="6.78121">
        <ele>379.38</ele>
        <time>2010-12-18T11:21:59Z</time>
      </trkpt>
      <trkpt lat="43.64051" lon="6.78121">
        <ele>379.38</ele>
        <time>2010-12-18T11:22:28Z</time>
      </trkpt>
      <trkpt lat="43.6405" lon="6.78121">
        <ele>378.42</ele>
        <time>2010-12-18T11:23:00Z</time>
      </trkpt>
      <trkpt lat="43.6405" lon="6.78121">
        <ele>378.9</ele>
        <time>2010-12-18T11:23:29Z</time>
      </trkpt>
      <trkpt lat="43.6405" lon="6.78121">
        <ele>378.42</ele>
        <time>2010-12-18T11:24:03Z</time>
      </trkpt>
      <trkpt lat="43.6405" lon="6.78121">
        <ele>379.38</ele>
        <time>2010-12-18T11:24:29Z</time>
      </trkpt>
      <trkpt lat="43.6405" lon="6.78121">
        <ele>379.86</ele>
        <time>2010-12-18T11:24:52Z</time>
      </trkpt>
      <trkpt lat="43.6405" lon="6.78121">
        <ele>379.86</ele>
        <time>2010-12-18T11:25:15Z</time>
      </trkpt>
      <trkpt lat="43.6405" lon="6.78121">
        <ele>379.86</ele>
        <time>2010-12-18T11:25:37Z</time>
      </trkpt>
      <trkpt lat="43.6405" lon="6.78121">
        <ele>380.82</ele>
        <time>2010-12-18T11:26:05Z</time>
      </trkpt>
      <trkpt lat="43.6405" lon="6.78121">
        <ele>380.34</ele>
        <time>2010-12-18T11:26:34Z</time>
      </trkpt>
      <trkpt lat="43.64049" lon="6.78121">
        <ele>380.34</ele>
        <time>2010-12-18T11:27:07Z</time>
      </trkpt>
      <trkpt lat="43.64049" lon="6.78121">
        <ele>379.86</ele>
        <time>2010-12-18T11:27:41Z</time>
      </trkpt>
      <trkpt lat="43.64049" lon="6.78121">
        <ele>379.38</ele>
        <time>2010-12-18T11:28:09Z</time>
      </trkpt>
      <trkpt lat="43.64049" lon="6.78121">
        <ele>381.3</ele>
        <time>2010-12-18T11:28:42Z</time>
      </trkpt>
      <trkpt lat="43.64049" lon="6.78121">
        <ele>378.9</ele>
        <time>2010-12-18T11:29:05Z</time>
      </trkpt>
      <trkpt lat="43.64049" lon="6.78121">
        <ele>378.9</ele>
        <time>2010-12-18T11:29:41Z</time>
      </trkpt>
      <trkpt lat="43.64049" lon="6.78121">
        <ele>378.9</ele>
        <time>2010-12-18T11:30:02Z</time>
      </trkpt>
      <trkpt lat="43.64049" lon="6.78121">
        <ele>378.9</ele>
        <time>2010-12-18T11:30:27Z</time>
      </trkpt>
      <trkpt lat="43.64048" lon="6.78121">
        <ele>379.38</ele>
        <time>2010-12-18T11:30:57Z</time>
      </trkpt>
      <trkpt lat="43.64048" lon="6.78121">
        <ele>378.42</ele>
        <time>2010-12-18T11:31:26Z</time>
      </trkpt>
      <trkpt lat="43.64048" lon="6.78121">
        <ele>378.9</ele>
        <time>2010-12-18T11:31:50Z</time>
      </trkpt>
      <trkpt lat="43.64048" lon="6.78121">
        <ele>379.86</ele>
        <time>2010-12-18T11:32:21Z</time>
      </trkpt>
      <trkpt lat="43.64048" lon="6.78121">
        <ele>380.34</ele>
        <time>2010-12-18T11:32:36Z</time>
      </trkpt>
      <trkpt lat="43.64048" lon="6.78121">
        <ele>377.45</ele>
        <time>2010-12-18T11:32:38Z</time>
      </trkpt>
      <trkpt lat="43.64048" lon="6.78121">
        <ele>380.82</ele>
        <time>2010-12-18T11:32:39Z</time>
      </trkpt>
      <trkpt lat="43.64048" lon="6.78121">
        <ele>380.34</ele>
        <time>2010-12-18T11:33:08Z</time>
      </trkpt>
      <trkpt lat="43.64048" lon="6.78121">
        <ele>379.86</ele>
        <time>2010-12-18T11:33:36Z</time>
      </trkpt>
      <trkpt lat="43.64048" lon="6.78121">
        <ele>379.38</ele>
        <time>2010-12-18T11:34:05Z</time>
      </trkpt>
      <trkpt lat="43.64048" lon="6.78121">
        <ele>379.86</ele>
        <time>2010-12-18T11:34:34Z</time>
      </trkpt>
      <trkpt lat="43.64048" lon="6.78121">
        <ele>378.9</ele>
        <time>2010-12-18T11:34:59Z</time>
      </trkpt>
      <trkpt lat="43.64048" lon="6.78121">
        <ele>380.34</ele>
        <time>2010-12-18T11:35:02Z</time>
      </trkpt>
      <trkpt lat="43.64048" lon="6.78121">
        <ele>380.34</ele>
        <time>2010-12-18T11:35:25Z</time>
      </trkpt>
      <trkpt lat="43.64048" lon="6.78121">
        <ele>381.3</ele>
        <time>2010-12-18T11:35:41Z</time>
      </trkpt>
      <trkpt lat="43.64048" lon="6.78121">
        <ele>377.94</ele>
        <time>2010-12-18T11:35:54Z</time>
      </trkpt>
      <trkpt lat="43.64048" lon="6.7812">
        <ele>378.9</ele>
        <time>2010-12-18T11:36:29Z</time>
      </trkpt>
      <trkpt lat="43.64048" lon="6.7812">
        <ele>379.86</ele>
        <time>2010-12-18T11:37:05Z</time>
      </trkpt>
      <trkpt lat="43.64048" lon="6.7812">
        <ele>379.86</ele>
        <time>2010-12-18T11:37:41Z</time>
      </trkpt>
      <trkpt lat="43.64048" lon="6.7812">
        <ele>379.86</ele>
        <time>2010-12-18T11:38:16Z</time>
      </trkpt>
      <trkpt lat="43.64048" lon="6.7812">
        <ele>378.9</ele>
        <time>2010-12-18T11:38:54Z</time>
      </trkpt>
      <trkpt lat="43.64048" lon="6.7812">
        <ele>380.82</ele>
        <time>2010-12-18T11:39:00Z</time>
      </trkpt>
      <trkpt lat="43.64046" lon="6.78123">
        <ele>380.82</ele>
        <time>2010-12-18T11:39:13Z</time>
      </trkpt>
      <trkpt lat="43.64042" lon="6.78118">
        <ele>381.3</ele>
        <time>2010-12-18T11:39:23Z</time>
      </trkpt>
      <trkpt lat="43.64043" lon="6.78117">
        <ele>381.3</ele>
        <time>2010-12-18T11:39:25Z</time>
      </trkpt>
      <trkpt lat="43.64044" lon="6.78109">
        <ele>380.34</ele>
        <time>2010-12-18T11:39:31Z</time>
      </trkpt>
      <trkpt lat="43.64048" lon="6.78102">
        <ele>380.34</ele>
        <time>2010-12-18T11:39:37Z</time>
      </trkpt>
      <trkpt lat="43.6406" lon="6.78085">
        <ele>379.86</ele>
        <time>2010-12-18T11:39:52Z</time>
      </trkpt>
      <trkpt lat="43.64064" lon="6.78079">
        <ele>379.38</ele>
        <time>2010-12-18T11:39:57Z</time>
      </trkpt>
      <trkpt lat="43.64076" lon="6.78063">
        <ele>377.94</ele>
        <time>2010-12-18T11:40:12Z</time>
      </trkpt>
      <trkpt lat="43.64081" lon="6.78057">
        <ele>377.45</ele>
        <time>2010-12-18T11:40:17Z</time>
      </trkpt>
      <trkpt lat="43.64095" lon="6.78044">
        <ele>377.94</ele>
        <time>2010-12-18T11:40:31Z</time>
      </trkpt>
      <trkpt lat="43.641" lon="6.78039">
        <ele>379.38</ele>
        <time>2010-12-18T11:40:37Z</time>
      </trkpt>
      <trkpt lat="43.64109" lon="6.78022">
        <ele>377.45</ele>
        <time>2010-12-18T11:40:51Z</time>
      </trkpt>
      <trkpt lat="43.6411" lon="6.78019">
        <ele>377.45</ele>
        <time>2010-12-18T11:40:54Z</time>
      </trkpt>
      <trkpt lat="43.64116" lon="6.7801">
        <ele>376.49</ele>
        <time>2010-12-18T11:41:02Z</time>
      </trkpt>
      <trkpt lat="43.64128" lon="6.78001">
        <ele>376.49</ele>
        <time>2010-12-18T11:41:13Z</time>
      </trkpt>
      <trkpt lat="43.64131" lon="6.77998">
        <ele>376.97</ele>
        <time>2010-12-18T11:41:17Z</time>
      </trkpt>
      <trkpt lat="43.64147" lon="6.77987">
        <ele>376.97</ele>
        <time>2010-12-18T11:41:33Z</time>
      </trkpt>
      <trkpt lat="43.64158" lon="6.77981">
        <ele>376.49</ele>
        <time>2010-12-18T11:41:43Z</time>
      </trkpt>
      <trkpt lat="43.64174" lon="6.77967">
        <ele>376.01</ele>
        <time>2010-12-18T11:41:59Z</time>
      </trkpt>
      <trkpt lat="43.64183" lon="6.77956">
        <ele>376.01</ele>
        <time>2010-12-18T11:42:14Z</time>
      </trkpt>
      <trkpt lat="43.64187" lon="6.77939">
        <ele>376.49</ele>
        <time>2010-12-18T11:42:29Z</time>
      </trkpt>
      <trkpt lat="43.64191" lon="6.77929">
        <ele>376.49</ele>
        <time>2010-12-18T11:42:35Z</time>
      </trkpt>
      <trkpt lat="43.64203" lon="6.77899">
        <ele>375.53</ele>
        <time>2010-12-18T11:42:50Z</time>
      </trkpt>
      <trkpt lat="43.6422" lon="6.77879">
        <ele>376.97</ele>
        <time>2010-12-18T11:43:06Z</time>
      </trkpt>
      <trkpt lat="43.64227" lon="6.77869">
        <ele>376.97</ele>
        <time>2010-12-18T11:43:13Z</time>
      </trkpt>
      <trkpt lat="43.64232" lon="6.77861">
        <ele>376.49</ele>
        <time>2010-12-18T11:43:19Z</time>
      </trkpt>
      <trkpt lat="43.64236" lon="6.77859">
        <ele>376.97</ele>
        <time>2010-12-18T11:43:22Z</time>
      </trkpt>
      <trkpt lat="43.6425" lon="6.77845">
        <ele>376.97</ele>
        <time>2010-12-18T11:43:37Z</time>
      </trkpt>
      <trkpt lat="43.64253" lon="6.77843">
        <ele>376.49</ele>
        <time>2010-12-18T11:43:40Z</time>
      </trkpt>
      <trkpt lat="43.64258" lon="6.77834">
        <ele>376.97</ele>
        <time>2010-12-18T11:43:49Z</time>
      </trkpt>
      <trkpt lat="43.64269" lon="6.77811">
        <ele>377.94</ele>
        <time>2010-12-18T11:44:06Z</time>
      </trkpt>
      <trkpt lat="43.64276" lon="6.77802">
        <ele>378.9</ele>
        <time>2010-12-18T11:44:14Z</time>
      </trkpt>
      <trkpt lat="43.64293" lon="6.77784">
        <ele>379.86</ele>
        <time>2010-12-18T11:44:32Z</time>
      </trkpt>
      <trkpt lat="43.64302" lon="6.7777">
        <ele>380.82</ele>
        <time>2010-12-18T11:44:47Z</time>
      </trkpt>
      <trkpt lat="43.64309" lon="6.77757">
        <ele>381.78</ele>
        <time>2010-12-18T11:44:56Z</time>
      </trkpt>
      <trkpt lat="43.64311" lon="6.77752">
        <ele>380.82</ele>
        <time>2010-12-18T11:45:00Z</time>
      </trkpt>
      <trkpt lat="43.64315" lon="6.77732">
        <ele>381.78</ele>
        <time>2010-12-18T11:45:15Z</time>
      </trkpt>
      <trkpt lat="43.64316" lon="6.77719">
        <ele>382.74</ele>
        <time>2010-12-18T11:45:26Z</time>
      </trkpt>
      <trkpt lat="43.6432" lon="6.77696">
        <ele>383.22</ele>
        <time>2010-12-18T11:45:41Z</time>
      </trkpt>
      <trkpt lat="43.64331" lon="6.77672">
        <ele>384.66</ele>
        <time>2010-12-18T11:45:55Z</time>
      </trkpt>
      <trkpt lat="43.64333" lon="6.77671">
        <ele>384.66</ele>
        <time>2010-12-18T11:46:09Z</time>
      </trkpt>
      <trkpt lat="43.64337" lon="6.77673">
        <ele>384.18</ele>
        <time>2010-12-18T11:46:25Z</time>
      </trkpt>
      <trkpt lat="43.64339" lon="6.77675">
        <ele>385.15</ele>
        <time>2010-12-18T11:46:47Z</time>
      </trkpt>
      <trkpt lat="43.64339" lon="6.77676">
        <ele>386.11</ele>
        <time>2010-12-18T11:46:49Z</time>
      </trkpt>
      <trkpt lat="43.64342" lon="6.77681">
        <ele>385.15</ele>
        <time>2010-12-18T11:46:55Z</time>
      </trkpt>
      <trkpt lat="43.64349" lon="6.77703">
        <ele>384.18</ele>
        <time>2010-12-18T11:47:10Z</time>
      </trkpt>
      <trkpt lat="43.6435" lon="6.77708">
        <ele>384.18</ele>
        <time>2010-12-18T11:47:12Z</time>
      </trkpt>
      <trkpt lat="43.64355" lon="6.77728">
        <ele>383.7</ele>
        <time>2010-12-18T11:47:27Z</time>
      </trkpt>
      <trkpt lat="43.64359" lon="6.77753">
        <ele>383.7</ele>
        <time>2010-12-18T11:47:44Z</time>
      </trkpt>
      <trkpt lat="43.64365" lon="6.77771">
        <ele>383.7</ele>
        <time>2010-12-18T11:47:58Z</time>
      </trkpt>
      <trkpt lat="43.64364" lon="6.77785">
        <ele>383.22</ele>
        <time>2010-12-18T11:48:09Z</time>
      </trkpt>
      <trkpt lat="43.64359" lon="6.7781">
        <ele>384.18</ele>
        <time>2010-12-18T11:48:25Z</time>
      </trkpt>
      <trkpt lat="43.64356" lon="6.77834">
        <ele>383.7</ele>
        <time>2010-12-18T11:48:39Z</time>
      </trkpt>
      <trkpt lat="43.64355" lon="6.77837">
        <ele>383.7</ele>
        <time>2010-12-18T11:48:41Z</time>
      </trkpt>
      <trkpt lat="43.64355" lon="6.77852">
        <ele>383.22</ele>
        <time>2010-12-18T11:48:49Z</time>
      </trkpt>
      <trkpt lat="43.64353" lon="6.77871">
        <ele>383.22</ele>
        <time>2010-12-18T11:49:03Z</time>
      </trkpt>
      <trkpt lat="43.64351" lon="6.77892">
        <ele>384.18</ele>
        <time>2010-12-18T11:49:15Z</time>
      </trkpt>
      <trkpt lat="43.64356" lon="6.77906">
        <ele>385.15</ele>
        <time>2010-12-18T11:49:27Z</time>
      </trkpt>
      <trkpt lat="43.64367" lon="6.77918">
        <ele>386.59</ele>
        <time>2010-12-18T11:49:41Z</time>
      </trkpt>
      <trkpt lat="43.64369" lon="6.7792">
        <ele>387.55</ele>
        <time>2010-12-18T11:49:43Z</time>
      </trkpt>
      <trkpt lat="43.64383" lon="6.77924">
        <ele>388.99</ele>
        <time>2010-12-18T11:49:54Z</time>
      </trkpt>
      <trkpt lat="43.64397" lon="6.77926">
        <ele>390.43</ele>
        <time>2010-12-18T11:50:09Z</time>
      </trkpt>
      <trkpt lat="43.64407" lon="6.77925">
        <ele>391.39</ele>
        <time>2010-12-18T11:50:20Z</time>
      </trkpt>
      <trkpt lat="43.64418" lon="6.77909">
        <ele>392.84</ele>
        <time>2010-12-18T11:50:37Z</time>
      </trkpt>
      <trkpt lat="43.6443" lon="6.77905">
        <ele>394.76</ele>
        <time>2010-12-18T11:50:52Z</time>
      </trkpt>
      <trkpt lat="43.6444" lon="6.77907">
        <ele>397.16</ele>
        <time>2010-12-18T11:51:07Z</time>
      </trkpt>
      <trkpt lat="43.64455" lon="6.77904">
        <ele>399.08</ele>
        <time>2010-12-18T11:51:22Z</time>
      </trkpt>
      <trkpt lat="43.64464" lon="6.77896">
        <ele>400.53</ele>
        <time>2010-12-18T11:51:35Z</time>
      </trkpt>
      <trkpt lat="43.64473" lon="6.77899">
        <ele>402.45</ele>
        <time>2010-12-18T11:51:50Z</time>
      </trkpt>
      <trkpt lat="43.64476" lon="6.77899">
        <ele>403.41</ele>
        <time>2010-12-18T11:51:52Z</time>
      </trkpt>
      <trkpt lat="43.64482" lon="6.77897">
        <ele>404.85</ele>
        <time>2010-12-18T11:51:59Z</time>
      </trkpt>
      <trkpt lat="43.64486" lon="6.77893">
        <ele>404.85</ele>
        <time>2010-12-18T11:52:09Z</time>
      </trkpt>
      <trkpt lat="43.64503" lon="6.77879">
        <ele>407.26</ele>
        <time>2010-12-18T11:52:25Z</time>
      </trkpt>
      <trkpt lat="43.6451" lon="6.7787">
        <ele>408.22</ele>
        <time>2010-12-18T11:52:37Z</time>
      </trkpt>
      <trkpt lat="43.64517" lon="6.77859">
        <ele>409.18</ele>
        <time>2010-12-18T11:52:52Z</time>
      </trkpt>
      <trkpt lat="43.64532" lon="6.77847">
        <ele>410.14</ele>
        <time>2010-12-18T11:53:08Z</time>
      </trkpt>
      <trkpt lat="43.64539" lon="6.77835">
        <ele>410.14</ele>
        <time>2010-12-18T11:53:22Z</time>
      </trkpt>
      <trkpt lat="43.64551" lon="6.77823">
        <ele>413.02</ele>
        <time>2010-12-18T11:53:36Z</time>
      </trkpt>
      <trkpt lat="43.64558" lon="6.77813">
        <ele>414.95</ele>
        <time>2010-12-18T11:53:49Z</time>
      </trkpt>
      <trkpt lat="43.64571" lon="6.77806">
        <ele>416.39</ele>
        <time>2010-12-18T11:54:02Z</time>
      </trkpt>
      <trkpt lat="43.64579" lon="6.77792">
        <ele>417.83</ele>
        <time>2010-12-18T11:54:16Z</time>
      </trkpt>
      <trkpt lat="43.64582" lon="6.77789">
        <ele>417.83</ele>
        <time>2010-12-18T11:54:21Z</time>
      </trkpt>
      <trkpt lat="43.64585" lon="6.77784">
        <ele>417.83</ele>
        <time>2010-12-18T11:54:24Z</time>
      </trkpt>
      <trkpt lat="43.64597" lon="6.77777">
        <ele>418.31</ele>
        <time>2010-12-18T11:54:33Z</time>
      </trkpt>
      <trkpt lat="43.64615" lon="6.77773">
        <ele>421.19</ele>
        <time>2010-12-18T11:54:49Z</time>
      </trkpt>
      <trkpt lat="43.64621" lon="6.77774">
        <ele>422.64</ele>
        <time>2010-12-18T11:54:57Z</time>
      </trkpt>
      <trkpt lat="43.64628" lon="6.77779">
        <ele>424.08</ele>
        <time>2010-12-18T11:55:05Z</time>
      </trkpt>
      <trkpt lat="43.6464" lon="6.77791">
        <ele>426.48</ele>
        <time>2010-12-18T11:55:18Z</time>
      </trkpt>
      <trkpt lat="43.64643" lon="6.77794">
        <ele>426.96</ele>
        <time>2010-12-18T11:55:20Z</time>
      </trkpt>
      <trkpt lat="43.64644" lon="6.77795">
        <ele>426.96</ele>
        <time>2010-12-18T11:55:22Z</time>
      </trkpt>
      <trkpt lat="43.64655" lon="6.77812">
        <ele>428.89</ele>
        <time>2010-12-18T11:55:36Z</time>
      </trkpt>
      <trkpt lat="43.64657" lon="6.77815">
        <ele>429.37</ele>
        <time>2010-12-18T11:55:39Z</time>
      </trkpt>
      <trkpt lat="43.64666" lon="6.77828">
        <ele>430.81</ele>
        <time>2010-12-18T11:55:53Z</time>
      </trkpt>
      <trkpt lat="43.64671" lon="6.77833">
        <ele>431.29</ele>
        <time>2010-12-18T11:56:00Z</time>
      </trkpt>
      <trkpt lat="43.64687" lon="6.77851">
        <ele>432.73</ele>
        <time>2010-12-18T11:56:17Z</time>
      </trkpt>
      <trkpt lat="43.64687" lon="6.77851">
        <ele>431.77</ele>
        <time>2010-12-18T11:56:38Z</time>
      </trkpt>
      <trkpt lat="43.64687" lon="6.77857">
        <ele>431.77</ele>
        <time>2010-12-18T11:56:42Z</time>
      </trkpt>
      <trkpt lat="43.64689" lon="6.77867">
        <ele>432.25</ele>
        <time>2010-12-18T11:56:53Z</time>
      </trkpt>
      <trkpt lat="43.64691" lon="6.77884">
        <ele>432.73</ele>
        <time>2010-12-18T11:57:07Z</time>
      </trkpt>
      <trkpt lat="43.64689" lon="6.77875">
        <ele>433.21</ele>
        <time>2010-12-18T11:57:18Z</time>
      </trkpt>
      <trkpt lat="43.64688" lon="6.77873">
        <ele>433.21</ele>
        <time>2010-12-18T11:57:26Z</time>
      </trkpt>
      <trkpt lat="43.64687" lon="6.77874">
        <ele>433.21</ele>
        <time>2010-12-18T11:57:28Z</time>
      </trkpt>
      <trkpt lat="43.64688" lon="6.77883">
        <ele>432.25</ele>
        <time>2010-12-18T11:57:39Z</time>
      </trkpt>
      <trkpt lat="43.64689" lon="6.77888">
        <ele>432.25</ele>
        <time>2010-12-18T11:57:44Z</time>
      </trkpt>
      <trkpt lat="43.64689" lon="6.77912">
        <ele>432.73</ele>
        <time>2010-12-18T11:58:00Z</time>
      </trkpt>
      <trkpt lat="43.64685" lon="6.77935">
        <ele>432.25</ele>
        <time>2010-12-18T11:58:13Z</time>
      </trkpt>
      <trkpt lat="43.64684" lon="6.77948">
        <ele>431.77</ele>
        <time>2010-12-18T11:58:21Z</time>
      </trkpt>
      <trkpt lat="43.64678" lon="6.77971">
        <ele>429.85</ele>
        <time>2010-12-18T11:58:37Z</time>
      </trkpt>
      <trkpt lat="43.64676" lon="6.77993">
        <ele>427.92</ele>
        <time>2010-12-18T11:58:52Z</time>
      </trkpt>
      <trkpt lat="43.64675" lon="6.78003">
        <ele>427.92</ele>
        <time>2010-12-18T11:58:58Z</time>
      </trkpt>
      <trkpt lat="43.64675" lon="6.78006">
        <ele>427.44</ele>
        <time>2010-12-18T11:59:13Z</time>
      </trkpt>
      <trkpt lat="43.64676" lon="6.78007">
        <ele>426.96</ele>
        <time>2010-12-18T11:59:16Z</time>
      </trkpt>
      <trkpt lat="43.64678" lon="6.78007">
        <ele>426.96</ele>
        <time>2010-12-18T11:59:18Z</time>
      </trkpt>
      <trkpt lat="43.64689" lon="6.78011">
        <ele>425.04</ele>
        <time>2010-12-18T11:59:36Z</time>
      </trkpt>
      <trkpt lat="43.64692" lon="6.78011">
        <ele>423.6</ele>
        <time>2010-12-18T11:59:43Z</time>
      </trkpt>
      <trkpt lat="43.64695" lon="6.78011">
        <ele>423.6</ele>
        <time>2010-12-18T11:59:46Z</time>
      </trkpt>
      <trkpt lat="43.64712" lon="6.78012">
        <ele>425.52</ele>
        <time>2010-12-18T12:00:01Z</time>
      </trkpt>
      <trkpt lat="43.64714" lon="6.78016">
        <ele>424.56</ele>
        <time>2010-12-18T12:00:03Z</time>
      </trkpt>
      <trkpt lat="43.64714" lon="6.78017">
        <ele>423.6</ele>
        <time>2010-12-18T12:00:25Z</time>
      </trkpt>
      <trkpt lat="43.64714" lon="6.78018">
        <ele>422.64</ele>
        <time>2010-12-18T12:00:43Z</time>
      </trkpt>
      <trkpt lat="43.64714" lon="6.78019">
        <ele>422.16</ele>
        <time>2010-12-18T12:01:10Z</time>
      </trkpt>
      <trkpt lat="43.64714" lon="6.78022">
        <ele>420.23</ele>
        <time>2010-12-18T12:01:13Z</time>
      </trkpt>
      <trkpt lat="43.64711" lon="6.7803">
        <ele>417.83</ele>
        <time>2010-12-18T12:01:19Z</time>
      </trkpt>
      <trkpt lat="43.6471" lon="6.78037">
        <ele>414.47</ele>
        <time>2010-12-18T12:01:32Z</time>
      </trkpt>
      <trkpt lat="43.64719" lon="6.78038">
        <ele>411.58</ele>
        <time>2010-12-18T12:01:43Z</time>
      </trkpt>
      <trkpt lat="43.64725" lon="6.78038">
        <ele>409.66</ele>
        <time>2010-12-18T12:01:47Z</time>
      </trkpt>
      <trkpt lat="43.64746" lon="6.78029">
        <ele>408.7</ele>
        <time>2010-12-18T12:02:04Z</time>
      </trkpt>
      <trkpt lat="43.6476" lon="6.78016">
        <ele>407.26</ele>
        <time>2010-12-18T12:02:20Z</time>
      </trkpt>
      <trkpt lat="43.64769" lon="6.78008">
        <ele>405.81</ele>
        <time>2010-12-18T12:02:30Z</time>
      </trkpt>
      <trkpt lat="43.64784" lon="6.77998">
        <ele>405.81</ele>
        <time>2010-12-18T12:02:46Z</time>
      </trkpt>
      <trkpt lat="43.64794" lon="6.77992">
        <ele>402.93</ele>
        <time>2010-12-18T12:02:59Z</time>
      </trkpt>
      <trkpt lat="43.64798" lon="6.77995">
        <ele>401.97</ele>
        <time>2010-12-18T12:03:04Z</time>
      </trkpt>
      <trkpt lat="43.64807" lon="6.77997">
        <ele>400.53</ele>
        <time>2010-12-18T12:03:14Z</time>
      </trkpt>
      <trkpt lat="43.64814" lon="6.78003">
        <ele>399.08</ele>
        <time>2010-12-18T12:03:21Z</time>
      </trkpt>
      <trkpt lat="43.6482" lon="6.78011">
        <ele>398.12</ele>
        <time>2010-12-18T12:03:31Z</time>
      </trkpt>
      <trkpt lat="43.64833" lon="6.78013">
        <ele>396.68</ele>
        <time>2010-12-18T12:03:42Z</time>
      </trkpt>
      <trkpt lat="43.64849" lon="6.78009">
        <ele>393.8</ele>
        <time>2010-12-18T12:03:58Z</time>
      </trkpt>
      <trkpt lat="43.64854" lon="6.78012">
        <ele>391.39</ele>
        <time>2010-12-18T12:04:11Z</time>
      </trkpt>
      <trkpt lat="43.64861" lon="6.7801">
        <ele>389.95</ele>
        <time>2010-12-18T12:04:18Z</time>
      </trkpt>
      <trkpt lat="43.64864" lon="6.7801">
        <ele>389.47</ele>
        <time>2010-12-18T12:04:23Z</time>
      </trkpt>
      <trkpt lat="43.64871" lon="6.78013">
        <ele>388.03</ele>
        <time>2010-12-18T12:04:33Z</time>
      </trkpt>
      <trkpt lat="43.64882" lon="6.78015">
        <ele>385.63</ele>
        <time>2010-12-18T12:04:47Z</time>
      </trkpt>
      <trkpt lat="43.64886" lon="6.78018">
        <ele>385.15</ele>
        <time>2010-12-18T12:04:57Z</time>
      </trkpt>
      <trkpt lat="43.64894" lon="6.7802">
        <ele>383.22</ele>
        <time>2010-12-18T12:05:03Z</time>
      </trkpt>
      <trkpt lat="43.64906" lon="6.78019">
        <ele>381.3</ele>
        <time>2010-12-18T12:05:18Z</time>
      </trkpt>
      <trkpt lat="43.64909" lon="6.78021">
        <ele>380.82</ele>
        <time>2010-12-18T12:05:24Z</time>
      </trkpt>
      <trkpt lat="43.64914" lon="6.78024">
        <ele>379.38</ele>
        <time>2010-12-18T12:05:31Z</time>
      </trkpt>
      <trkpt lat="43.6493" lon="6.78031">
        <ele>378.42</ele>
        <time>2010-12-18T12:05:45Z</time>
      </trkpt>
      <trkpt lat="43.64932" lon="6.7803">
        <ele>377.94</ele>
        <time>2010-12-18T12:05:47Z</time>
      </trkpt>
      <trkpt lat="43.64941" lon="6.78026">
        <ele>375.53</ele>
        <time>2010-12-18T12:06:00Z</time>
      </trkpt>
      <trkpt lat="43.64949" lon="6.78032">
        <ele>373.13</ele>
        <time>2010-12-18T12:06:11Z</time>
      </trkpt>
      <trkpt lat="43.64956" lon="6.78041">
        <ele>372.17</ele>
        <time>2010-12-18T12:06:21Z</time>
      </trkpt>
      <trkpt lat="43.64965" lon="6.78047">
        <ele>370.73</ele>
        <time>2010-12-18T12:06:37Z</time>
      </trkpt>
      <trkpt lat="43.64967" lon="6.78046">
        <ele>369.28</ele>
        <time>2010-12-18T12:06:40Z</time>
      </trkpt>
      <trkpt lat="43.64975" lon="6.78054">
        <ele>366.88</ele>
        <time>2010-12-18T12:06:55Z</time>
      </trkpt>
      <trkpt lat="43.64979" lon="6.78062">
        <ele>364.96</ele>
        <time>2010-12-18T12:07:08Z</time>
      </trkpt>
      <trkpt lat="43.64985" lon="6.78064">
        <ele>362.55</ele>
        <time>2010-12-18T12:07:22Z</time>
      </trkpt>
      <trkpt lat="43.64985" lon="6.78064">
        <ele>362.55</ele>
        <time>2010-12-18T12:07:25Z</time>
      </trkpt>
      <trkpt lat="43.6499" lon="6.78064">
        <ele>361.59</ele>
        <time>2010-12-18T12:07:30Z</time>
      </trkpt>
      <trkpt lat="43.65004" lon="6.78065">
        <ele>359.19</ele>
        <time>2010-12-18T12:07:49Z</time>
      </trkpt>
      <trkpt lat="43.65008" lon="6.78066">
        <ele>357.75</ele>
        <time>2010-12-18T12:07:54Z</time>
      </trkpt>
      <trkpt lat="43.65012" lon="6.78064">
        <ele>357.27</ele>
        <time>2010-12-18T12:08:00Z</time>
      </trkpt>
      <trkpt lat="43.65019" lon="6.78062">
        <ele>356.79</ele>
        <time>2010-12-18T12:08:07Z</time>
      </trkpt>
      <trkpt lat="43.65032" lon="6.78061">
        <ele>354.38</ele>
        <time>2010-12-18T12:08:23Z</time>
      </trkpt>
      <trkpt lat="43.65033" lon="6.78061">
        <ele>354.86</ele>
        <time>2010-12-18T12:08:24Z</time>
      </trkpt>
      <trkpt lat="43.65042" lon="6.7806">
        <ele>352.94</ele>
        <time>2010-12-18T12:08:37Z</time>
      </trkpt>
      <trkpt lat="43.65043" lon="6.78069">
        <ele>351.98</ele>
        <time>2010-12-18T12:08:47Z</time>
      </trkpt>
      <trkpt lat="43.65034" lon="6.78081">
        <ele>349.1</ele>
        <time>2010-12-18T12:09:01Z</time>
      </trkpt>
      <trkpt lat="43.65025" lon="6.78088">
        <ele>348.62</ele>
        <time>2010-12-18T12:09:14Z</time>
      </trkpt>
      <trkpt lat="43.65019" lon="6.78094">
        <ele>345.73</ele>
        <time>2010-12-18T12:09:29Z</time>
      </trkpt>
      <trkpt lat="43.65013" lon="6.78105">
        <ele>343.33</ele>
        <time>2010-12-18T12:09:42Z</time>
      </trkpt>
      <trkpt lat="43.65014" lon="6.78108">
        <ele>341.89</ele>
        <time>2010-12-18T12:09:56Z</time>
      </trkpt>
      <trkpt lat="43.6502" lon="6.78105">
        <ele>339</ele>
        <time>2010-12-18T12:10:12Z</time>
      </trkpt>
      <trkpt lat="43.65029" lon="6.78101">
        <ele>337.56</ele>
        <time>2010-12-18T12:10:27Z</time>
      </trkpt>
      <trkpt lat="43.65042" lon="6.78103">
        <ele>334.68</ele>
        <time>2010-12-18T12:10:43Z</time>
      </trkpt>
      <trkpt lat="43.6505" lon="6.781">
        <ele>332.27</ele>
        <time>2010-12-18T12:10:57Z</time>
      </trkpt>
      <trkpt lat="43.65061" lon="6.78097">
        <ele>330.83</ele>
        <time>2010-12-18T12:11:10Z</time>
      </trkpt>
      <trkpt lat="43.65067" lon="6.78095">
        <ele>329.39</ele>
        <time>2010-12-18T12:11:17Z</time>
      </trkpt>
      <trkpt lat="43.65066" lon="6.78103">
        <ele>327.47</ele>
        <time>2010-12-18T12:11:31Z</time>
      </trkpt>
      <trkpt lat="43.65074" lon="6.781">
        <ele>325.06</ele>
        <time>2010-12-18T12:11:45Z</time>
      </trkpt>
      <trkpt lat="43.65078" lon="6.781">
        <ele>324.58</ele>
        <time>2010-12-18T12:11:48Z</time>
      </trkpt>
      <trkpt lat="43.6509" lon="6.78095">
        <ele>322.66</ele>
        <time>2010-12-18T12:12:03Z</time>
      </trkpt>
      <trkpt lat="43.65101" lon="6.78093">
        <ele>320.74</ele>
        <time>2010-12-18T12:12:16Z</time>
      </trkpt>
      <trkpt lat="43.65112" lon="6.78089">
        <ele>318.33</ele>
        <time>2010-12-18T12:12:30Z</time>
      </trkpt>
      <trkpt lat="43.65123" lon="6.78083">
        <ele>315.45</ele>
        <time>2010-12-18T12:12:42Z</time>
      </trkpt>
      <trkpt lat="43.65131" lon="6.78076">
        <ele>314.97</ele>
        <time>2010-12-18T12:12:56Z</time>
      </trkpt>
      <trkpt lat="43.65133" lon="6.78073">
        <ele>312.57</ele>
        <time>2010-12-18T12:13:02Z</time>
      </trkpt>
      <trkpt lat="43.65143" lon="6.78069">
        <ele>310.64</ele>
        <time>2010-12-18T12:13:15Z</time>
      </trkpt>
      <trkpt lat="43.65151" lon="6.78065">
        <ele>308.72</ele>
        <time>2010-12-18T12:13:29Z</time>
      </trkpt>
      <trkpt lat="43.65153" lon="6.78064">
        <ele>307.76</ele>
        <time>2010-12-18T12:13:32Z</time>
      </trkpt>
      <trkpt lat="43.65162" lon="6.78054">
        <ele>305.36</ele>
        <time>2010-12-18T12:13:46Z</time>
      </trkpt>
      <trkpt lat="43.65165" lon="6.78052">
        <ele>303.91</ele>
        <time>2010-12-18T12:13:50Z</time>
      </trkpt>
      <trkpt lat="43.65172" lon="6.78051">
        <ele>303.43</ele>
        <time>2010-12-18T12:13:57Z</time>
      </trkpt>
      <trkpt lat="43.65186" lon="6.78047">
        <ele>301.51</ele>
        <time>2010-12-18T12:14:11Z</time>
      </trkpt>
      <trkpt lat="43.6519" lon="6.78044">
        <ele>299.59</ele>
        <time>2010-12-18T12:14:16Z</time>
      </trkpt>
      <trkpt lat="43.652" lon="6.78036">
        <ele>297.18</ele>
        <time>2010-12-18T12:14:29Z</time>
      </trkpt>
      <trkpt lat="43.65205" lon="6.78033">
        <ele>297.67</ele>
        <time>2010-12-18T12:14:33Z</time>
      </trkpt>
      <trkpt lat="43.65217" lon="6.78026">
        <ele>294.3</ele>
        <time>2010-12-18T12:14:47Z</time>
      </trkpt>
      <trkpt lat="43.65233" lon="6.78013">
        <ele>293.34</ele>
        <time>2010-12-18T12:15:03Z</time>
      </trkpt>
      <trkpt lat="43.65246" lon="6.78003">
        <ele>291.42</ele>
        <time>2010-12-18T12:15:18Z</time>
      </trkpt>
      <trkpt lat="43.6526" lon="6.77997">
        <ele>288.53</ele>
        <time>2010-12-18T12:15:33Z</time>
      </trkpt>
      <trkpt lat="43.65272" lon="6.77989">
        <ele>285.17</ele>
        <time>2010-12-18T12:15:49Z</time>
      </trkpt>
      <trkpt lat="43.65287" lon="6.7798">
        <ele>283.73</ele>
        <time>2010-12-18T12:16:04Z</time>
      </trkpt>
      <trkpt lat="43.653" lon="6.77968">
        <ele>281.32</ele>
        <time>2010-12-18T12:16:18Z</time>
      </trkpt>
      <trkpt lat="43.65301" lon="6.77965">
        <ele>280.84</ele>
        <time>2010-12-18T12:16:20Z</time>
      </trkpt>
      <trkpt lat="43.65314" lon="6.77956">
        <ele>278.44</ele>
        <time>2010-12-18T12:16:36Z</time>
      </trkpt>
      <trkpt lat="43.65321" lon="6.77946">
        <ele>275.56</ele>
        <time>2010-12-18T12:16:47Z</time>
      </trkpt>
      <trkpt lat="43.65324" lon="6.77942">
        <ele>274.59</ele>
        <time>2010-12-18T12:16:53Z</time>
      </trkpt>
      <trkpt lat="43.65332" lon="6.77933">
        <ele>270.75</ele>
        <time>2010-12-18T12:17:02Z</time>
      </trkpt>
      <trkpt lat="43.65339" lon="6.77923">
        <ele>268.35</ele>
        <time>2010-12-18T12:17:17Z</time>
      </trkpt>
      <trkpt lat="43.65345" lon="6.77907">
        <ele>266.42</ele>
        <time>2010-12-18T12:17:28Z</time>
      </trkpt>
      <trkpt lat="43.65347" lon="6.77905">
        <ele>264.98</ele>
        <time>2010-12-18T12:17:30Z</time>
      </trkpt>
      <trkpt lat="43.6535" lon="6.779">
        <ele>264.02</ele>
        <time>2010-12-18T12:17:37Z</time>
      </trkpt>
      <trkpt lat="43.65354" lon="6.77891">
        <ele>263.54</ele>
        <time>2010-12-18T12:17:43Z</time>
      </trkpt>
      <trkpt lat="43.65356" lon="6.77884">
        <ele>262.58</ele>
        <time>2010-12-18T12:17:47Z</time>
      </trkpt>
      <trkpt lat="43.65366" lon="6.7787">
        <ele>261.14</ele>
        <time>2010-12-18T12:17:58Z</time>
      </trkpt>
      <trkpt lat="43.65372" lon="6.77856">
        <ele>258.25</ele>
        <time>2010-12-18T12:18:09Z</time>
      </trkpt>
      <trkpt lat="43.65377" lon="6.77835">
        <ele>254.89</ele>
        <time>2010-12-18T12:18:25Z</time>
      </trkpt>
      <trkpt lat="43.65382" lon="6.77821">
        <ele>252.48</ele>
        <time>2010-12-18T12:18:40Z</time>
      </trkpt>
      <trkpt lat="43.65392" lon="6.778">
        <ele>249.6</ele>
        <time>2010-12-18T12:18:55Z</time>
      </trkpt>
      <trkpt lat="43.65397" lon="6.77795">
        <ele>248.64</ele>
        <time>2010-12-18T12:19:08Z</time>
      </trkpt>
      <trkpt lat="43.65416" lon="6.77795">
        <ele>246.23</ele>
        <time>2010-12-18T12:19:24Z</time>
      </trkpt>
      <trkpt lat="43.65425" lon="6.77786">
        <ele>243.35</ele>
        <time>2010-12-18T12:19:39Z</time>
      </trkpt>
      <trkpt lat="43.6543" lon="6.77774">
        <ele>239.99</ele>
        <time>2010-12-18T12:19:51Z</time>
      </trkpt>
      <trkpt lat="43.65439" lon="6.77764">
        <ele>238.54</ele>
        <time>2010-12-18T12:20:03Z</time>
      </trkpt>
      <trkpt lat="43.65452" lon="6.77757">
        <ele>238.54</ele>
        <time>2010-12-18T12:20:17Z</time>
      </trkpt>
      <trkpt lat="43.65452" lon="6.77758">
        <ele>238.54</ele>
        <time>2010-12-18T12:20:33Z</time>
      </trkpt>
      <trkpt lat="43.65452" lon="6.77758">
        <ele>239.02</ele>
        <time>2010-12-18T12:21:02Z</time>
      </trkpt>
      <trkpt lat="43.65452" lon="6.77758">
        <ele>239.51</ele>
        <time>2010-12-18T12:21:32Z</time>
      </trkpt>
      <trkpt lat="43.65452" lon="6.77758">
        <ele>239.99</ele>
        <time>2010-12-18T12:22:00Z</time>
      </trkpt>
      <trkpt lat="43.65452" lon="6.77758">
        <ele>239.02</ele>
        <time>2010-12-18T12:22:23Z</time>
      </trkpt>
      <trkpt lat="43.65459" lon="6.77749">
        <ele>239.02</ele>
        <time>2010-12-18T12:22:32Z</time>
      </trkpt>
      <trkpt lat="43.65461" lon="6.77742">
        <ele>239.02</ele>
        <time>2010-12-18T12:22:37Z</time>
      </trkpt>
      <trkpt lat="43.65476" lon="6.77726">
        <ele>237.1</ele>
        <time>2010-12-18T12:22:54Z</time>
      </trkpt>
      <trkpt lat="43.65487" lon="6.77717">
        <ele>234.7</ele>
        <time>2010-12-18T12:23:08Z</time>
      </trkpt>
      <trkpt lat="43.65498" lon="6.77703">
        <ele>233.26</ele>
        <time>2010-12-18T12:23:24Z</time>
      </trkpt>
      <trkpt lat="43.655" lon="6.77701">
        <ele>233.26</ele>
        <time>2010-12-18T12:23:27Z</time>
      </trkpt>
      <trkpt lat="43.65514" lon="6.77687">
        <ele>233.74</ele>
        <time>2010-12-18T12:23:41Z</time>
      </trkpt>
      <trkpt lat="43.65526" lon="6.77676">
        <ele>233.74</ele>
        <time>2010-12-18T12:23:54Z</time>
      </trkpt>
      <trkpt lat="43.65541" lon="6.77668">
        <ele>234.7</ele>
        <time>2010-12-18T12:24:07Z</time>
      </trkpt>
      <trkpt lat="43.65548" lon="6.77666">
        <ele>235.66</ele>
        <time>2010-12-18T12:24:19Z</time>
      </trkpt>
      <trkpt lat="43.65548" lon="6.77666">
        <ele>236.14</ele>
        <time>2010-12-18T12:24:39Z</time>
      </trkpt>
      <trkpt lat="43.6555" lon="6.77663">
        <ele>236.14</ele>
        <time>2010-12-18T12:24:41Z</time>
      </trkpt>
      <trkpt lat="43.65553" lon="6.77662">
        <ele>236.14</ele>
        <time>2010-12-18T12:24:43Z</time>
      </trkpt>
      <trkpt lat="43.65564" lon="6.77655">
        <ele>234.7</ele>
        <time>2010-12-18T12:24:56Z</time>
      </trkpt>
      <trkpt lat="43.65569" lon="6.77642">
        <ele>231.33</ele>
        <time>2010-12-18T12:25:09Z</time>
      </trkpt>
      <trkpt lat="43.65578" lon="6.77634">
        <ele>229.89</ele>
        <time>2010-12-18T12:25:23Z</time>
      </trkpt>
      <trkpt lat="43.65595" lon="6.77634">
        <ele>229.41</ele>
        <time>2010-12-18T12:25:36Z</time>
      </trkpt>
      <trkpt lat="43.65604" lon="6.77637">
        <ele>229.89</ele>
        <time>2010-12-18T12:25:47Z</time>
      </trkpt>
      <trkpt lat="43.65624" lon="6.77639">
        <ele>230.85</ele>
        <time>2010-12-18T12:26:04Z</time>
      </trkpt>
      <trkpt lat="43.65626" lon="6.77639">
        <ele>231.33</ele>
        <time>2010-12-18T12:26:05Z</time>
      </trkpt>
      <trkpt lat="43.6564" lon="6.77648">
        <ele>230.37</ele>
        <time>2010-12-18T12:26:20Z</time>
      </trkpt>
      <trkpt lat="43.65652" lon="6.77643">
        <ele>229.41</ele>
        <time>2010-12-18T12:26:31Z</time>
      </trkpt>
      <trkpt lat="43.65675" lon="6.77638">
        <ele>227.97</ele>
        <time>2010-12-18T12:26:47Z</time>
      </trkpt>
      <trkpt lat="43.65685" lon="6.77635">
        <ele>229.41</ele>
        <time>2010-12-18T12:26:54Z</time>
      </trkpt>
      <trkpt lat="43.65687" lon="6.77633">
        <ele>228.93</ele>
        <time>2010-12-18T12:26:56Z</time>
      </trkpt>
      <trkpt lat="43.65697" lon="6.77627">
        <ele>228.45</ele>
        <time>2010-12-18T12:27:05Z</time>
      </trkpt>
      <trkpt lat="43.65709" lon="6.77606">
        <ele>227.49</ele>
        <time>2010-12-18T12:27:22Z</time>
      </trkpt>
      <trkpt lat="43.65717" lon="6.77594">
        <ele>228.45</ele>
        <time>2010-12-18T12:27:35Z</time>
      </trkpt>
      <trkpt lat="43.65718" lon="6.77591">
        <ele>227.49</ele>
        <time>2010-12-18T12:27:37Z</time>
      </trkpt>
      <trkpt lat="43.65729" lon="6.77585">
        <ele>227.01</ele>
        <time>2010-12-18T12:27:47Z</time>
      </trkpt>
      <trkpt lat="43.65733" lon="6.77583">
        <ele>226.53</ele>
        <time>2010-12-18T12:27:50Z</time>
      </trkpt>
      <trkpt lat="43.65752" lon="6.77583">
        <ele>227.49</ele>
        <time>2010-12-18T12:28:05Z</time>
      </trkpt>
      <trkpt lat="43.65769" lon="6.77586">
        <ele>226.53</ele>
        <time>2010-12-18T12:28:21Z</time>
      </trkpt>
      <trkpt lat="43.65775" lon="6.77592">
        <ele>224.61</ele>
        <time>2010-12-18T12:28:33Z</time>
      </trkpt>
      <trkpt lat="43.6578" lon="6.77601">
        <ele>221.72</ele>
        <time>2010-12-18T12:28:43Z</time>
      </trkpt>
      <trkpt lat="43.65782" lon="6.77606">
        <ele>221.24</ele>
        <time>2010-12-18T12:28:47Z</time>
      </trkpt>
      <trkpt lat="43.65792" lon="6.77612">
        <ele>219.8</ele>
        <time>2010-12-18T12:28:58Z</time>
      </trkpt>
      <trkpt lat="43.65807" lon="6.77607">
        <ele>218.36</ele>
        <time>2010-12-18T12:29:11Z</time>
      </trkpt>
      <trkpt lat="43.65816" lon="6.77616">
        <ele>218.36</ele>
        <time>2010-12-18T12:29:25Z</time>
      </trkpt>
      <trkpt lat="43.65824" lon="6.77619">
        <ele>217.88</ele>
        <time>2010-12-18T12:29:31Z</time>
      </trkpt>
      <trkpt lat="43.65839" lon="6.77617">
        <ele>215.95</ele>
        <time>2010-12-18T12:29:44Z</time>
      </trkpt>
      <trkpt lat="43.65852" lon="6.77614">
        <ele>215.47</ele>
        <time>2010-12-18T12:29:55Z</time>
      </trkpt>
      <trkpt lat="43.65857" lon="6.77613">
        <ele>214.99</ele>
        <time>2010-12-18T12:30:01Z</time>
      </trkpt>
      <trkpt lat="43.65868" lon="6.77611">
        <ele>214.99</ele>
        <time>2010-12-18T12:30:10Z</time>
      </trkpt>
      <trkpt lat="43.6587" lon="6.77611">
        <ele>214.51</ele>
        <time>2010-12-18T12:30:12Z</time>
      </trkpt>
      <trkpt lat="43.65876" lon="6.77609">
        <ele>213.55</ele>
        <time>2010-12-18T12:30:16Z</time>
      </trkpt>
      <trkpt lat="43.6589" lon="6.77614">
        <ele>211.63</ele>
        <time>2010-12-18T12:30:31Z</time>
      </trkpt>
      <trkpt lat="43.659" lon="6.77612">
        <ele>213.07</ele>
        <time>2010-12-18T12:30:39Z</time>
      </trkpt>
      <trkpt lat="43.65917" lon="6.77608">
        <ele>211.63</ele>
        <time>2010-12-18T12:30:53Z</time>
      </trkpt>
      <trkpt lat="43.65929" lon="6.77611">
        <ele>209.22</ele>
        <time>2010-12-18T12:31:10Z</time>
      </trkpt>
      <trkpt lat="43.65937" lon="6.77613">
        <ele>208.74</ele>
        <time>2010-12-18T12:31:15Z</time>
      </trkpt>
      <trkpt lat="43.65955" lon="6.77617">
        <ele>206.82</ele>
        <time>2010-12-18T12:31:29Z</time>
      </trkpt>
      <trkpt lat="43.65963" lon="6.77617">
        <ele>205.38</ele>
        <time>2010-12-18T12:31:44Z</time>
      </trkpt>
      <trkpt lat="43.65967" lon="6.77614">
        <ele>205.86</ele>
        <time>2010-12-18T12:31:58Z</time>
      </trkpt>
      <trkpt lat="43.65977" lon="6.7761">
        <ele>206.82</ele>
        <time>2010-12-18T12:32:05Z</time>
      </trkpt>
      <trkpt lat="43.65976" lon="6.7761">
        <ele>206.82</ele>
        <time>2010-12-18T12:32:07Z</time>
      </trkpt>
      <trkpt lat="43.65975" lon="6.77615">
        <ele>205.86</ele>
        <time>2010-12-18T12:32:23Z</time>
      </trkpt>
      <trkpt lat="43.65976" lon="6.77618">
        <ele>203.94</ele>
        <time>2010-12-18T12:32:39Z</time>
      </trkpt>
      <trkpt lat="43.65976" lon="6.77619">
        <ele>203.94</ele>
        <time>2010-12-18T12:32:59Z</time>
      </trkpt>
      <trkpt lat="43.65976" lon="6.77627">
        <ele>202.01</ele>
        <time>2010-12-18T12:33:03Z</time>
      </trkpt>
      <trkpt lat="43.65971" lon="6.77637">
        <ele>199.61</ele>
        <time>2010-12-18T12:33:12Z</time>
      </trkpt>
      <trkpt lat="43.6597" lon="6.77639">
        <ele>199.13</ele>
        <time>2010-12-18T12:33:16Z</time>
      </trkpt>
      <trkpt lat="43.65973" lon="6.77637">
        <ele>197.69</ele>
        <time>2010-12-18T12:33:20Z</time>
      </trkpt>
      <trkpt lat="43.65977" lon="6.77634">
        <ele>197.21</ele>
        <time>2010-12-18T12:33:35Z</time>
      </trkpt>
      <trkpt lat="43.65981" lon="6.7764">
        <ele>197.69</ele>
        <time>2010-12-18T12:33:46Z</time>
      </trkpt>
      <trkpt lat="43.65982" lon="6.77641">
        <ele>197.21</ele>
        <time>2010-12-18T12:33:51Z</time>
      </trkpt>
      <trkpt lat="43.65985" lon="6.77649">
        <ele>196.25</ele>
        <time>2010-12-18T12:34:05Z</time>
      </trkpt>
      <trkpt lat="43.65985" lon="6.7765">
        <ele>198.17</ele>
        <time>2010-12-18T12:34:20Z</time>
      </trkpt>
      <trkpt lat="43.65985" lon="6.7765">
        <ele>197.69</ele>
        <time>2010-12-18T12:34:43Z</time>
      </trkpt>
      <trkpt lat="43.65988" lon="6.77651">
        <ele>196.73</ele>
        <time>2010-12-18T12:35:01Z</time>
      </trkpt>
      <trkpt lat="43.65987" lon="6.7765">
        <ele>197.69</ele>
        <time>2010-12-18T12:35:25Z</time>
      </trkpt>
      <trkpt lat="43.65986" lon="6.7765">
        <ele>197.21</ele>
        <time>2010-12-18T12:35:39Z</time>
      </trkpt>
      <trkpt lat="43.65986" lon="6.7765">
        <ele>198.17</ele>
        <time>2010-12-18T12:35:57Z</time>
      </trkpt>
      <trkpt lat="43.65985" lon="6.7765">
        <ele>196.73</ele>
        <time>2010-12-18T12:36:12Z</time>
      </trkpt>
      <trkpt lat="43.65986" lon="6.77652">
        <ele>197.69</ele>
        <time>2010-12-18T12:36:32Z</time>
      </trkpt>
      <trkpt lat="43.65987" lon="6.77653">
        <ele>198.17</ele>
        <time>2010-12-18T12:36:47Z</time>
      </trkpt>
      <trkpt lat="43.65987" lon="6.77653">
        <ele>197.69</ele>
        <time>2010-12-18T12:37:05Z</time>
      </trkpt>
      <trkpt lat="43.65987" lon="6.77654">
        <ele>197.21</ele>
        <time>2010-12-18T12:37:18Z</time>
      </trkpt>
      <trkpt lat="43.65987" lon="6.77654">
        <ele>196.73</ele>
        <time>2010-12-18T12:37:49Z</time>
      </trkpt>
      <trkpt lat="43.65987" lon="6.77654">
        <ele>197.21</ele>
        <time>2010-12-18T12:38:19Z</time>
      </trkpt>
      <trkpt lat="43.65987" lon="6.77654">
        <ele>198.65</ele>
        <time>2010-12-18T12:38:41Z</time>
      </trkpt>
      <trkpt lat="43.65987" lon="6.77654">
        <ele>198.65</ele>
        <time>2010-12-18T12:38:54Z</time>
      </trkpt>
      <trkpt lat="43.65987" lon="6.77654">
        <ele>197.69</ele>
        <time>2010-12-18T12:39:21Z</time>
      </trkpt>
      <trkpt lat="43.65988" lon="6.77657">
        <ele>198.17</ele>
        <time>2010-12-18T12:39:34Z</time>
      </trkpt>
      <trkpt lat="43.65989" lon="6.77658">
        <ele>198.17</ele>
        <time>2010-12-18T12:39:35Z</time>
      </trkpt>
      <trkpt lat="43.65992" lon="6.77667">
        <ele>197.69</ele>
        <time>2010-12-18T12:39:41Z</time>
      </trkpt>
      <trkpt lat="43.65994" lon="6.7767">
        <ele>196.73</ele>
        <time>2010-12-18T12:39:44Z</time>
      </trkpt>
      <trkpt lat="43.65995" lon="6.77681">
        <ele>197.21</ele>
        <time>2010-12-18T12:40:00Z</time>
      </trkpt>
      <trkpt lat="43.65994" lon="6.77684">
        <ele>196.73</ele>
        <time>2010-12-18T12:40:03Z</time>
      </trkpt>
      <trkpt lat="43.65986" lon="6.77694">
        <ele>196.25</ele>
        <time>2010-12-18T12:40:18Z</time>
      </trkpt>
      <trkpt lat="43.65978" lon="6.77699">
        <ele>195.77</ele>
        <time>2010-12-18T12:40:26Z</time>
      </trkpt>
      <trkpt lat="43.65972" lon="6.77701">
        <ele>195.77</ele>
        <time>2010-12-18T12:40:29Z</time>
      </trkpt>
      <trkpt lat="43.65953" lon="6.77714">
        <ele>198.17</ele>
        <time>2010-12-18T12:40:46Z</time>
      </trkpt>
      <trkpt lat="43.6595" lon="6.7772">
        <ele>199.61</ele>
        <time>2010-12-18T12:40:54Z</time>
      </trkpt>
      <trkpt lat="43.6595" lon="6.77735">
        <ele>202.98</ele>
        <time>2010-12-18T12:41:05Z</time>
      </trkpt>
      <trkpt lat="43.65941" lon="6.77745">
        <ele>204.9</ele>
        <time>2010-12-18T12:41:18Z</time>
      </trkpt>
      <trkpt lat="43.65937" lon="6.77754">
        <ele>205.38</ele>
        <time>2010-12-18T12:41:26Z</time>
      </trkpt>
      <trkpt lat="43.65932" lon="6.77765">
        <ele>207.3</ele>
        <time>2010-12-18T12:41:40Z</time>
      </trkpt>
      <trkpt lat="43.65929" lon="6.77769">
        <ele>207.78</ele>
        <time>2010-12-18T12:41:44Z</time>
      </trkpt>
      <trkpt lat="43.65928" lon="6.77776">
        <ele>208.26</ele>
        <time>2010-12-18T12:41:49Z</time>
      </trkpt>
      <trkpt lat="43.65922" lon="6.77793">
        <ele>209.22</ele>
        <time>2010-12-18T12:42:04Z</time>
      </trkpt>
      <trkpt lat="43.65918" lon="6.77801">
        <ele>209.22</ele>
        <time>2010-12-18T12:42:11Z</time>
      </trkpt>
      <trkpt lat="43.65912" lon="6.77816">
        <ele>210.19</ele>
        <time>2010-12-18T12:42:21Z</time>
      </trkpt>
      <trkpt lat="43.65901" lon="6.77836">
        <ele>212.11</ele>
        <time>2010-12-18T12:42:38Z</time>
      </trkpt>
      <trkpt lat="43.65893" lon="6.77845">
        <ele>215.47</ele>
        <time>2010-12-18T12:42:52Z</time>
      </trkpt>
      <trkpt lat="43.65893" lon="6.77848">
        <ele>215.47</ele>
        <time>2010-12-18T12:42:54Z</time>
      </trkpt>
      <trkpt lat="43.65887" lon="6.77856">
        <ele>216.43</ele>
        <time>2010-12-18T12:43:01Z</time>
      </trkpt>
      <trkpt lat="43.65883" lon="6.77868">
        <ele>216.91</ele>
        <time>2010-12-18T12:43:09Z</time>
      </trkpt>
      <trkpt lat="43.65875" lon="6.77879">
        <ele>219.32</ele>
        <time>2010-12-18T12:43:23Z</time>
      </trkpt>
      <trkpt lat="43.65857" lon="6.7789">
        <ele>220.76</ele>
        <time>2010-12-18T12:43:40Z</time>
      </trkpt>
      <trkpt lat="43.65854" lon="6.77888">
        <ele>223.64</ele>
        <time>2010-12-18T12:43:53Z</time>
      </trkpt>
      <trkpt lat="43.65856" lon="6.77888">
        <ele>223.16</ele>
        <time>2010-12-18T12:43:55Z</time>
      </trkpt>
      <trkpt lat="43.65862" lon="6.77895">
        <ele>224.61</ele>
        <time>2010-12-18T12:44:03Z</time>
      </trkpt>
      <trkpt lat="43.65859" lon="6.77908">
        <ele>227.01</ele>
        <time>2010-12-18T12:44:17Z</time>
      </trkpt>
      <trkpt lat="43.6585" lon="6.77916">
        <ele>227.49</ele>
        <time>2010-12-18T12:44:31Z</time>
      </trkpt>
      <trkpt lat="43.65845" lon="6.77919">
        <ele>229.89</ele>
        <time>2010-12-18T12:44:46Z</time>
      </trkpt>
      <trkpt lat="43.65833" lon="6.77923">
        <ele>232.78</ele>
        <time>2010-12-18T12:44:57Z</time>
      </trkpt>
      <trkpt lat="43.6583" lon="6.77922">
        <ele>234.22</ele>
        <time>2010-12-18T12:45:11Z</time>
      </trkpt>
      <trkpt lat="43.65828" lon="6.77922">
        <ele>234.22</ele>
        <time>2010-12-18T12:45:14Z</time>
      </trkpt>
      <trkpt lat="43.65825" lon="6.77925">
        <ele>235.66</ele>
        <time>2010-12-18T12:45:17Z</time>
      </trkpt>
      <trkpt lat="43.65817" lon="6.77943">
        <ele>236.62</ele>
        <time>2010-12-18T12:45:31Z</time>
      </trkpt>
      <trkpt lat="43.65816" lon="6.77943">
        <ele>236.14</ele>
        <time>2010-12-18T12:45:32Z</time>
      </trkpt>
      <trkpt lat="43.65815" lon="6.77946">
        <ele>237.1</ele>
        <time>2010-12-18T12:45:34Z</time>
      </trkpt>
      <trkpt lat="43.65803" lon="6.77967">
        <ele>240.47</ele>
        <time>2010-12-18T12:45:49Z</time>
      </trkpt>
      <trkpt lat="43.65796" lon="6.77983">
        <ele>240.95</ele>
        <time>2010-12-18T12:46:03Z</time>
      </trkpt>
      <trkpt lat="43.65795" lon="6.77988">
        <ele>241.43</ele>
        <time>2010-12-18T12:46:07Z</time>
      </trkpt>
      <trkpt lat="43.65789" lon="6.78004">
        <ele>242.87</ele>
        <time>2010-12-18T12:46:19Z</time>
      </trkpt>
      <trkpt lat="43.65776" lon="6.78018">
        <ele>244.31</ele>
        <time>2010-12-18T12:46:35Z</time>
      </trkpt>
      <trkpt lat="43.65774" lon="6.78018">
        <ele>244.31</ele>
        <time>2010-12-18T12:46:36Z</time>
      </trkpt>
      <trkpt lat="43.65772" lon="6.78017">
        <ele>244.31</ele>
        <time>2010-12-18T12:46:38Z</time>
      </trkpt>
      <trkpt lat="43.65761" lon="6.78004">
        <ele>246.23</ele>
        <time>2010-12-18T12:46:51Z</time>
      </trkpt>
      <trkpt lat="43.65749" lon="6.77993">
        <ele>247.68</ele>
        <time>2010-12-18T12:47:04Z</time>
      </trkpt>
      <trkpt lat="43.65746" lon="6.77992">
        <ele>248.16</ele>
        <time>2010-12-18T12:47:07Z</time>
      </trkpt>
      <trkpt lat="43.65739" lon="6.77991">
        <ele>249.12</ele>
        <time>2010-12-18T12:47:20Z</time>
      </trkpt>
      <trkpt lat="43.65739" lon="6.77991">
        <ele>250.08</ele>
        <time>2010-12-18T12:47:44Z</time>
      </trkpt>
      <trkpt lat="43.65739" lon="6.77992">
        <ele>250.56</ele>
        <time>2010-12-18T12:48:09Z</time>
      </trkpt>
      <trkpt lat="43.65739" lon="6.77991">
        <ele>250.08</ele>
        <time>2010-12-18T12:48:32Z</time>
      </trkpt>
      <trkpt lat="43.65737" lon="6.77991">
        <ele>250.08</ele>
        <time>2010-12-18T12:48:48Z</time>
      </trkpt>
      <trkpt lat="43.65728" lon="6.78002">
        <ele>251.04</ele>
        <time>2010-12-18T12:49:03Z</time>
      </trkpt>
      <trkpt lat="43.65728" lon="6.78012">
        <ele>252</ele>
        <time>2010-12-18T12:49:13Z</time>
      </trkpt>
      <trkpt lat="43.65732" lon="6.78022">
        <ele>253.93</ele>
        <time>2010-12-18T12:49:27Z</time>
      </trkpt>
      <trkpt lat="43.65734" lon="6.78026">
        <ele>254.41</ele>
        <time>2010-12-18T12:49:33Z</time>
      </trkpt>
      <trkpt lat="43.65741" lon="6.78039">
        <ele>255.85</ele>
        <time>2010-12-18T12:49:47Z</time>
      </trkpt>
      <trkpt lat="43.65748" lon="6.78047">
        <ele>257.29</ele>
        <time>2010-12-18T12:49:59Z</time>
      </trkpt>
      <trkpt lat="43.65753" lon="6.78056">
        <ele>258.73</ele>
        <time>2010-12-18T12:50:10Z</time>
      </trkpt>
      <trkpt lat="43.65763" lon="6.78068">
        <ele>260.17</ele>
        <time>2010-12-18T12:50:25Z</time>
      </trkpt>
      <trkpt lat="43.65775" lon="6.78075">
        <ele>261.62</ele>
        <time>2010-12-18T12:50:39Z</time>
      </trkpt>
      <trkpt lat="43.65778" lon="6.7808">
        <ele>263.54</ele>
        <time>2010-12-18T12:50:50Z</time>
      </trkpt>
      <trkpt lat="43.65786" lon="6.78085">
        <ele>265.94</ele>
        <time>2010-12-18T12:51:02Z</time>
      </trkpt>
      <trkpt lat="43.65793" lon="6.78092">
        <ele>266.42</ele>
        <time>2010-12-18T12:51:14Z</time>
      </trkpt>
      <trkpt lat="43.658" lon="6.78096">
        <ele>267.86</ele>
        <time>2010-12-18T12:51:30Z</time>
      </trkpt>
      <trkpt lat="43.65801" lon="6.78097">
        <ele>268.35</ele>
        <time>2010-12-18T12:51:33Z</time>
      </trkpt>
      <trkpt lat="43.65807" lon="6.78101">
        <ele>269.79</ele>
        <time>2010-12-18T12:51:47Z</time>
      </trkpt>
      <trkpt lat="43.65808" lon="6.78106">
        <ele>271.23</ele>
        <time>2010-12-18T12:52:00Z</time>
      </trkpt>
      <trkpt lat="43.65806" lon="6.78111">
        <ele>273.15</ele>
        <time>2010-12-18T12:52:12Z</time>
      </trkpt>
      <trkpt lat="43.65801" lon="6.78115">
        <ele>273.63</ele>
        <time>2010-12-18T12:52:25Z</time>
      </trkpt>
      <trkpt lat="43.65793" lon="6.78119">
        <ele>276.04</ele>
        <time>2010-12-18T12:52:35Z</time>
      </trkpt>
      <trkpt lat="43.65783" lon="6.78132">
        <ele>278.92</ele>
        <time>2010-12-18T12:52:51Z</time>
      </trkpt>
      <trkpt lat="43.65775" lon="6.78144">
        <ele>281.32</ele>
        <time>2010-12-18T12:53:04Z</time>
      </trkpt>
      <trkpt lat="43.65772" lon="6.78156">
        <ele>281.32</ele>
        <time>2010-12-18T12:53:17Z</time>
      </trkpt>
      <trkpt lat="43.65778" lon="6.78155">
        <ele>284.21</ele>
        <time>2010-12-18T12:53:30Z</time>
      </trkpt>
      <trkpt lat="43.65788" lon="6.78153">
        <ele>284.21</ele>
        <time>2010-12-18T12:53:44Z</time>
      </trkpt>
      <trkpt lat="43.65793" lon="6.78151">
        <ele>284.69</ele>
        <time>2010-12-18T12:53:50Z</time>
      </trkpt>
      <trkpt lat="43.65803" lon="6.78147">
        <ele>286.61</ele>
        <time>2010-12-18T12:54:00Z</time>
      </trkpt>
      <trkpt lat="43.6581" lon="6.78144">
        <ele>287.57</ele>
        <time>2010-12-18T12:54:09Z</time>
      </trkpt>
      <trkpt lat="43.65815" lon="6.78148">
        <ele>289.49</ele>
        <time>2010-12-18T12:54:21Z</time>
      </trkpt>
      <trkpt lat="43.65811" lon="6.78155">
        <ele>289.97</ele>
        <time>2010-12-18T12:54:30Z</time>
      </trkpt>
      <trkpt lat="43.65807" lon="6.78159">
        <ele>290.46</ele>
        <time>2010-12-18T12:54:35Z</time>
      </trkpt>
      <trkpt lat="43.65802" lon="6.78168">
        <ele>291.42</ele>
        <time>2010-12-18T12:54:45Z</time>
      </trkpt>
      <trkpt lat="43.65799" lon="6.7817">
        <ele>292.38</ele>
        <time>2010-12-18T12:54:48Z</time>
      </trkpt>
      <trkpt lat="43.65788" lon="6.7819">
        <ele>293.82</ele>
        <time>2010-12-18T12:55:05Z</time>
      </trkpt>
      <trkpt lat="43.65783" lon="6.782">
        <ele>294.78</ele>
        <time>2010-12-18T12:55:14Z</time>
      </trkpt>
      <trkpt lat="43.65779" lon="6.78215">
        <ele>297.18</ele>
        <time>2010-12-18T12:55:28Z</time>
      </trkpt>
      <trkpt lat="43.65776" lon="6.78228">
        <ele>299.59</ele>
        <time>2010-12-18T12:55:41Z</time>
      </trkpt>
      <trkpt lat="43.65771" lon="6.78242">
        <ele>301.51</ele>
        <time>2010-12-18T12:55:54Z</time>
      </trkpt>
      <trkpt lat="43.65769" lon="6.78248">
        <ele>302.47</ele>
        <time>2010-12-18T12:55:59Z</time>
      </trkpt>
      <trkpt lat="43.65765" lon="6.78259">
        <ele>304.39</ele>
        <time>2010-12-18T12:56:13Z</time>
      </trkpt>
      <trkpt lat="43.65767" lon="6.78262">
        <ele>305.36</ele>
        <time>2010-12-18T12:56:26Z</time>
      </trkpt>
      <trkpt lat="43.65766" lon="6.78273">
        <ele>306.32</ele>
        <time>2010-12-18T12:56:41Z</time>
      </trkpt>
      <trkpt lat="43.65765" lon="6.78281">
        <ele>308.24</ele>
        <time>2010-12-18T12:56:53Z</time>
      </trkpt>
      <trkpt lat="43.65764" lon="6.7829">
        <ele>310.64</ele>
        <time>2010-12-18T12:57:06Z</time>
      </trkpt>
      <trkpt lat="43.65762" lon="6.78303">
        <ele>312.57</ele>
        <time>2010-12-18T12:57:19Z</time>
      </trkpt>
      <trkpt lat="43.65758" lon="6.78316">
        <ele>314.01</ele>
        <time>2010-12-18T12:57:33Z</time>
      </trkpt>
      <trkpt lat="43.65751" lon="6.78328">
        <ele>314.49</ele>
        <time>2010-12-18T12:57:47Z</time>
      </trkpt>
      <trkpt lat="43.65743" lon="6.78336">
        <ele>315.93</ele>
        <time>2010-12-18T12:58:03Z</time>
      </trkpt>
      <trkpt lat="43.65738" lon="6.78348">
        <ele>317.37</ele>
        <time>2010-12-18T12:58:18Z</time>
      </trkpt>
      <trkpt lat="43.65733" lon="6.78356">
        <ele>318.81</ele>
        <time>2010-12-18T12:58:34Z</time>
      </trkpt>
      <trkpt lat="43.65731" lon="6.7836">
        <ele>319.78</ele>
        <time>2010-12-18T12:58:41Z</time>
      </trkpt>
      <trkpt lat="43.65727" lon="6.78379">
        <ele>320.26</ele>
        <time>2010-12-18T12:58:56Z</time>
      </trkpt>
      <trkpt lat="43.65722" lon="6.78393">
        <ele>322.18</ele>
        <time>2010-12-18T12:59:10Z</time>
      </trkpt>
      <trkpt lat="43.65716" lon="6.78406">
        <ele>323.62</ele>
        <time>2010-12-18T12:59:27Z</time>
      </trkpt>
      <trkpt lat="43.65711" lon="6.78417">
        <ele>324.58</ele>
        <time>2010-12-18T12:59:41Z</time>
      </trkpt>
      <trkpt lat="43.65706" lon="6.78429">
        <ele>326.5</ele>
        <time>2010-12-18T12:59:54Z</time>
      </trkpt>
      <trkpt lat="43.65701" lon="6.78441">
        <ele>326.99</ele>
        <time>2010-12-18T13:00:08Z</time>
      </trkpt>
      <trkpt lat="43.65692" lon="6.78454">
        <ele>328.43</ele>
        <time>2010-12-18T13:00:24Z</time>
      </trkpt>
      <trkpt lat="43.65684" lon="6.78465">
        <ele>329.87</ele>
        <time>2010-12-18T13:00:40Z</time>
      </trkpt>
      <trkpt lat="43.65683" lon="6.78469">
        <ele>329.87</ele>
        <time>2010-12-18T13:00:43Z</time>
      </trkpt>
      <trkpt lat="43.65676" lon="6.78485">
        <ele>331.31</ele>
        <time>2010-12-18T13:01:00Z</time>
      </trkpt>
      <trkpt lat="43.65669" lon="6.78497">
        <ele>332.75</ele>
        <time>2010-12-18T13:01:16Z</time>
      </trkpt>
      <trkpt lat="43.65667" lon="6.78504">
        <ele>332.75</ele>
        <time>2010-12-18T13:01:31Z</time>
      </trkpt>
      <trkpt lat="43.65666" lon="6.78505">
        <ele>333.23</ele>
        <time>2010-12-18T13:01:54Z</time>
      </trkpt>
      <trkpt lat="43.65661" lon="6.78518">
        <ele>334.2</ele>
        <time>2010-12-18T13:02:07Z</time>
      </trkpt>
      <trkpt lat="43.65656" lon="6.78526">
        <ele>335.64</ele>
        <time>2010-12-18T13:02:15Z</time>
      </trkpt>
      <trkpt lat="43.65653" lon="6.78534">
        <ele>336.6</ele>
        <time>2010-12-18T13:02:24Z</time>
      </trkpt>
      <trkpt lat="43.65651" lon="6.78536">
        <ele>336.6</ele>
        <time>2010-12-18T13:02:27Z</time>
      </trkpt>
      <trkpt lat="43.65649" lon="6.78539">
        <ele>337.08</ele>
        <time>2010-12-18T13:02:30Z</time>
      </trkpt>
      <trkpt lat="43.65641" lon="6.78553">
        <ele>339</ele>
        <time>2010-12-18T13:02:45Z</time>
      </trkpt>
      <trkpt lat="43.65636" lon="6.78568">
        <ele>340.92</ele>
        <time>2010-12-18T13:03:00Z</time>
      </trkpt>
      <trkpt lat="43.65635" lon="6.78571">
        <ele>341.41</ele>
        <time>2010-12-18T13:03:07Z</time>
      </trkpt>
      <trkpt lat="43.65631" lon="6.78586">
        <ele>343.33</ele>
        <time>2010-12-18T13:03:22Z</time>
      </trkpt>
      <trkpt lat="43.6563" lon="6.78587">
        <ele>343.81</ele>
        <time>2010-12-18T13:03:23Z</time>
      </trkpt>
      <trkpt lat="43.65625" lon="6.786">
        <ele>345.25</ele>
        <time>2010-12-18T13:03:37Z</time>
      </trkpt>
      <trkpt lat="43.65624" lon="6.78602">
        <ele>345.73</ele>
        <time>2010-12-18T13:03:39Z</time>
      </trkpt>
      <trkpt lat="43.65619" lon="6.78612">
        <ele>347.17</ele>
        <time>2010-12-18T13:03:49Z</time>
      </trkpt>
      <trkpt lat="43.65616" lon="6.78619">
        <ele>348.13</ele>
        <time>2010-12-18T13:03:56Z</time>
      </trkpt>
      <trkpt lat="43.65613" lon="6.78623">
        <ele>349.1</ele>
        <time>2010-12-18T13:04:07Z</time>
      </trkpt>
      <trkpt lat="43.65612" lon="6.78623">
        <ele>349.1</ele>
        <time>2010-12-18T13:04:28Z</time>
      </trkpt>
      <trkpt lat="43.65612" lon="6.78624">
        <ele>349.1</ele>
        <time>2010-12-18T13:04:38Z</time>
      </trkpt>
      <trkpt lat="43.65603" lon="6.78632">
        <ele>350.54</ele>
        <time>2010-12-18T13:04:51Z</time>
      </trkpt>
      <trkpt lat="43.65601" lon="6.78634">
        <ele>351.5</ele>
        <time>2010-12-18T13:04:53Z</time>
      </trkpt>
      <trkpt lat="43.65593" lon="6.78641">
        <ele>352.94</ele>
        <time>2010-12-18T13:05:06Z</time>
      </trkpt>
      <trkpt lat="43.65587" lon="6.78648">
        <ele>353.9</ele>
        <time>2010-12-18T13:05:16Z</time>
      </trkpt>
      <trkpt lat="43.65582" lon="6.78652">
        <ele>354.86</ele>
        <time>2010-12-18T13:05:25Z</time>
      </trkpt>
      <trkpt lat="43.65577" lon="6.78657">
        <ele>355.83</ele>
        <time>2010-12-18T13:05:36Z</time>
      </trkpt>
      <trkpt lat="43.6557" lon="6.78667">
        <ele>357.75</ele>
        <time>2010-12-18T13:05:51Z</time>
      </trkpt>
      <trkpt lat="43.65568" lon="6.78676">
        <ele>358.23</ele>
        <time>2010-12-18T13:06:04Z</time>
      </trkpt>
      <trkpt lat="43.65562" lon="6.78686">
        <ele>360.15</ele>
        <time>2010-12-18T13:06:17Z</time>
      </trkpt>
      <trkpt lat="43.65557" lon="6.78692">
        <ele>362.07</ele>
        <time>2010-12-18T13:06:28Z</time>
      </trkpt>
      <trkpt lat="43.65556" lon="6.78693">
        <ele>363.04</ele>
        <time>2010-12-18T13:06:30Z</time>
      </trkpt>
      <trkpt lat="43.65552" lon="6.78703">
        <ele>364.48</ele>
        <time>2010-12-18T13:06:42Z</time>
      </trkpt>
      <trkpt lat="43.65548" lon="6.78712">
        <ele>365.92</ele>
        <time>2010-12-18T13:06:56Z</time>
      </trkpt>
      <trkpt lat="43.65541" lon="6.78721">
        <ele>368.32</ele>
        <time>2010-12-18T13:07:08Z</time>
      </trkpt>
      <trkpt lat="43.65536" lon="6.78729">
        <ele>369.76</ele>
        <time>2010-12-18T13:07:21Z</time>
      </trkpt>
      <trkpt lat="43.65529" lon="6.78738">
        <ele>371.21</ele>
        <time>2010-12-18T13:07:35Z</time>
      </trkpt>
      <trkpt lat="43.65522" lon="6.78744">
        <ele>372.65</ele>
        <time>2010-12-18T13:07:49Z</time>
      </trkpt>
      <trkpt lat="43.65515" lon="6.78753">
        <ele>374.57</ele>
        <time>2010-12-18T13:08:03Z</time>
      </trkpt>
      <trkpt lat="43.65509" lon="6.78756">
        <ele>375.05</ele>
        <time>2010-12-18T13:08:17Z</time>
      </trkpt>
      <trkpt lat="43.65505" lon="6.78759">
        <ele>376.97</ele>
        <time>2010-12-18T13:08:24Z</time>
      </trkpt>
      <trkpt lat="43.65501" lon="6.78766">
        <ele>377.94</ele>
        <time>2010-12-18T13:08:36Z</time>
      </trkpt>
      <trkpt lat="43.65496" lon="6.78773">
        <ele>379.38</ele>
        <time>2010-12-18T13:08:49Z</time>
      </trkpt>
      <trkpt lat="43.6549" lon="6.78778">
        <ele>380.82</ele>
        <time>2010-12-18T13:09:04Z</time>
      </trkpt>
      <trkpt lat="43.65484" lon="6.78786">
        <ele>382.26</ele>
        <time>2010-12-18T13:09:18Z</time>
      </trkpt>
      <trkpt lat="43.65487" lon="6.7879">
        <ele>383.7</ele>
        <time>2010-12-18T13:09:31Z</time>
      </trkpt>
      <trkpt lat="43.65495" lon="6.78785">
        <ele>384.18</ele>
        <time>2010-12-18T13:09:44Z</time>
      </trkpt>
      <trkpt lat="43.65499" lon="6.78787">
        <ele>385.15</ele>
        <time>2010-12-18T13:09:57Z</time>
      </trkpt>
      <trkpt lat="43.65492" lon="6.78796">
        <ele>387.07</ele>
        <time>2010-12-18T13:10:14Z</time>
      </trkpt>
      <trkpt lat="43.65485" lon="6.78803">
        <ele>388.99</ele>
        <time>2010-12-18T13:10:29Z</time>
      </trkpt>
      <trkpt lat="43.65477" lon="6.78811">
        <ele>391.39</ele>
        <time>2010-12-18T13:10:45Z</time>
      </trkpt>
      <trkpt lat="43.6547" lon="6.78818">
        <ele>393.32</ele>
        <time>2010-12-18T13:10:58Z</time>
      </trkpt>
      <trkpt lat="43.65467" lon="6.78822">
        <ele>393.8</ele>
        <time>2010-12-18T13:11:10Z</time>
      </trkpt>
      <trkpt lat="43.6546" lon="6.78827">
        <ele>395.72</ele>
        <time>2010-12-18T13:11:24Z</time>
      </trkpt>
      <trkpt lat="43.65451" lon="6.78833">
        <ele>397.16</ele>
        <time>2010-12-18T13:11:38Z</time>
      </trkpt>
      <trkpt lat="43.65443" lon="6.78839">
        <ele>399.08</ele>
        <time>2010-12-18T13:11:54Z</time>
      </trkpt>
      <trkpt lat="43.65434" lon="6.78843">
        <ele>400.53</ele>
        <time>2010-12-18T13:12:09Z</time>
      </trkpt>
      <trkpt lat="43.65423" lon="6.78846">
        <ele>401.97</ele>
        <time>2010-12-18T13:12:24Z</time>
      </trkpt>
      <trkpt lat="43.65415" lon="6.78851">
        <ele>402.93</ele>
        <time>2010-12-18T13:12:38Z</time>
      </trkpt>
      <trkpt lat="43.65406" lon="6.78854">
        <ele>404.37</ele>
        <time>2010-12-18T13:12:50Z</time>
      </trkpt>
      <trkpt lat="43.65398" lon="6.7886">
        <ele>405.81</ele>
        <time>2010-12-18T13:13:03Z</time>
      </trkpt>
      <trkpt lat="43.65393" lon="6.78864">
        <ele>406.77</ele>
        <time>2010-12-18T13:13:17Z</time>
      </trkpt>
      <trkpt lat="43.65385" lon="6.78871">
        <ele>407.74</ele>
        <time>2010-12-18T13:13:33Z</time>
      </trkpt>
      <trkpt lat="43.65381" lon="6.78874">
        <ele>407.74</ele>
        <time>2010-12-18T13:13:48Z</time>
      </trkpt>
      <trkpt lat="43.65377" lon="6.78877">
        <ele>409.66</ele>
        <time>2010-12-18T13:14:03Z</time>
      </trkpt>
      <trkpt lat="43.65377" lon="6.78877">
        <ele>409.18</ele>
        <time>2010-12-18T13:14:21Z</time>
      </trkpt>
      <trkpt lat="43.65375" lon="6.78884">
        <ele>409.18</ele>
        <time>2010-12-18T13:14:38Z</time>
      </trkpt>
      <trkpt lat="43.65371" lon="6.78888">
        <ele>409.66</ele>
        <time>2010-12-18T13:14:52Z</time>
      </trkpt>
      <trkpt lat="43.6536" lon="6.78897">
        <ele>411.58</ele>
        <time>2010-12-18T13:15:09Z</time>
      </trkpt>
      <trkpt lat="43.65351" lon="6.78903">
        <ele>413.02</ele>
        <time>2010-12-18T13:15:24Z</time>
      </trkpt>
      <trkpt lat="43.65347" lon="6.78909">
        <ele>414.47</ele>
        <time>2010-12-18T13:15:37Z</time>
      </trkpt>
      <trkpt lat="43.6534" lon="6.78913">
        <ele>414.95</ele>
        <time>2010-12-18T13:15:51Z</time>
      </trkpt>
      <trkpt lat="43.65331" lon="6.78924">
        <ele>416.87</ele>
        <time>2010-12-18T13:16:06Z</time>
      </trkpt>
      <trkpt lat="43.65324" lon="6.78933">
        <ele>417.35</ele>
        <time>2010-12-18T13:16:17Z</time>
      </trkpt>
      <trkpt lat="43.65315" lon="6.78949">
        <ele>417.35</ele>
        <time>2010-12-18T13:16:31Z</time>
      </trkpt>
      <trkpt lat="43.65313" lon="6.7895">
        <ele>417.83</ele>
        <time>2010-12-18T13:16:33Z</time>
      </trkpt>
      <trkpt lat="43.65303" lon="6.78962">
        <ele>418.79</ele>
        <time>2010-12-18T13:16:47Z</time>
      </trkpt>
      <trkpt lat="43.65296" lon="6.78977">
        <ele>420.71</ele>
        <time>2010-12-18T13:17:02Z</time>
      </trkpt>
      <trkpt lat="43.65289" lon="6.78985">
        <ele>421.68</ele>
        <time>2010-12-18T13:17:15Z</time>
      </trkpt>
      <trkpt lat="43.65281" lon="6.78992">
        <ele>422.64</ele>
        <time>2010-12-18T13:17:28Z</time>
      </trkpt>
      <trkpt lat="43.65272" lon="6.79001">
        <ele>424.56</ele>
        <time>2010-12-18T13:17:43Z</time>
      </trkpt>
      <trkpt lat="43.65266" lon="6.79006">
        <ele>426.48</ele>
        <time>2010-12-18T13:17:56Z</time>
      </trkpt>
      <trkpt lat="43.65265" lon="6.79009">
        <ele>426</ele>
        <time>2010-12-18T13:17:58Z</time>
      </trkpt>
      <trkpt lat="43.65258" lon="6.79017">
        <ele>426.96</ele>
        <time>2010-12-18T13:18:12Z</time>
      </trkpt>
      <trkpt lat="43.65249" lon="6.79023">
        <ele>428.89</ele>
        <time>2010-12-18T13:18:26Z</time>
      </trkpt>
      <trkpt lat="43.65246" lon="6.79027">
        <ele>430.33</ele>
        <time>2010-12-18T13:18:39Z</time>
      </trkpt>
      <trkpt lat="43.65244" lon="6.79029">
        <ele>431.29</ele>
        <time>2010-12-18T13:18:43Z</time>
      </trkpt>
      <trkpt lat="43.65239" lon="6.79032">
        <ele>432.25</ele>
        <time>2010-12-18T13:18:56Z</time>
      </trkpt>
      <trkpt lat="43.65234" lon="6.79037">
        <ele>433.21</ele>
        <time>2010-12-18T13:19:10Z</time>
      </trkpt>
      <trkpt lat="43.65223" lon="6.79041">
        <ele>434.65</ele>
        <time>2010-12-18T13:19:26Z</time>
      </trkpt>
      <trkpt lat="43.65215" lon="6.79043">
        <ele>437.06</ele>
        <time>2010-12-18T13:19:40Z</time>
      </trkpt>
      <trkpt lat="43.65205" lon="6.7904">
        <ele>439.46</ele>
        <time>2010-12-18T13:19:53Z</time>
      </trkpt>
      <trkpt lat="43.65199" lon="6.79039">
        <ele>440.42</ele>
        <time>2010-12-18T13:20:09Z</time>
      </trkpt>
      <trkpt lat="43.65195" lon="6.79042">
        <ele>441.86</ele>
        <time>2010-12-18T13:20:23Z</time>
      </trkpt>
      <trkpt lat="43.65188" lon="6.79049">
        <ele>443.79</ele>
        <time>2010-12-18T13:20:39Z</time>
      </trkpt>
      <trkpt lat="43.65181" lon="6.79059">
        <ele>444.27</ele>
        <time>2010-12-18T13:20:50Z</time>
      </trkpt>
      <trkpt lat="43.65175" lon="6.79062">
        <ele>445.71</ele>
        <time>2010-12-18T13:20:57Z</time>
      </trkpt>
      <trkpt lat="43.65167" lon="6.79067">
        <ele>447.63</ele>
        <time>2010-12-18T13:21:11Z</time>
      </trkpt>
      <trkpt lat="43.65164" lon="6.79068">
        <ele>447.63</ele>
        <time>2010-12-18T13:21:20Z</time>
      </trkpt>
      <trkpt lat="43.65162" lon="6.79063">
        <ele>447.63</ele>
        <time>2010-12-18T13:21:36Z</time>
      </trkpt>
      <trkpt lat="43.65161" lon="6.79063">
        <ele>447.63</ele>
        <time>2010-12-18T13:22:13Z</time>
      </trkpt>
      <trkpt lat="43.65161" lon="6.79063">
        <ele>447.63</ele>
        <time>2010-12-18T13:22:40Z</time>
      </trkpt>
      <trkpt lat="43.65161" lon="6.79063">
        <ele>447.63</ele>
        <time>2010-12-18T13:23:13Z</time>
      </trkpt>
      <trkpt lat="43.65161" lon="6.79063">
        <ele>447.15</ele>
        <time>2010-12-18T13:23:51Z</time>
      </trkpt>
      <trkpt lat="43.65161" lon="6.79063">
        <ele>447.63</ele>
        <time>2010-12-18T13:24:13Z</time>
      </trkpt>
      <trkpt lat="43.65161" lon="6.79063">
        <ele>447.15</ele>
        <time>2010-12-18T13:24:42Z</time>
      </trkpt>
      <trkpt lat="43.65161" lon="6.79064">
        <ele>447.15</ele>
        <time>2010-12-18T13:25:08Z</time>
      </trkpt>
      <trkpt lat="43.65161" lon="6.79064">
        <ele>447.15</ele>
        <time>2010-12-18T13:25:42Z</time>
      </trkpt>
      <trkpt lat="43.65161" lon="6.79064">
        <ele>446.67</ele>
        <time>2010-12-18T13:26:14Z</time>
      </trkpt>
      <trkpt lat="43.65161" lon="6.79064">
        <ele>446.67</ele>
        <time>2010-12-18T13:26:41Z</time>
      </trkpt>
      <trkpt lat="43.65161" lon="6.79064">
        <ele>445.23</ele>
        <time>2010-12-18T13:27:10Z</time>
      </trkpt>
      <trkpt lat="43.65161" lon="6.79064">
        <ele>445.23</ele>
        <time>2010-12-18T13:27:42Z</time>
      </trkpt>
      <trkpt lat="43.65161" lon="6.79064">
        <ele>445.23</ele>
        <time>2010-12-18T13:28:03Z</time>
      </trkpt>
      <trkpt lat="43.65161" lon="6.79065">
        <ele>445.71</ele>
        <time>2010-12-18T13:28:37Z</time>
      </trkpt>
      <trkpt lat="43.65162" lon="6.79065">
        <ele>446.19</ele>
        <time>2010-12-18T13:29:07Z</time>
      </trkpt>
      <trkpt lat="43.65159" lon="6.79065">
        <ele>446.67</ele>
        <time>2010-12-18T13:29:27Z</time>
      </trkpt>
      <trkpt lat="43.65157" lon="6.79066">
        <ele>446.67</ele>
        <time>2010-12-18T13:29:29Z</time>
      </trkpt>
      <trkpt lat="43.65155" lon="6.79068">
        <ele>447.15</ele>
        <time>2010-12-18T13:29:31Z</time>
      </trkpt>
      <trkpt lat="43.65144" lon="6.79076">
        <ele>447.63</ele>
        <time>2010-12-18T13:29:42Z</time>
      </trkpt>
      <trkpt lat="43.65133" lon="6.79084">
        <ele>450.03</ele>
        <time>2010-12-18T13:29:57Z</time>
      </trkpt>
      <trkpt lat="43.65123" lon="6.79093">
        <ele>451.48</ele>
        <time>2010-12-18T13:30:11Z</time>
      </trkpt>
      <trkpt lat="43.65118" lon="6.79095">
        <ele>452.92</ele>
        <time>2010-12-18T13:30:17Z</time>
      </trkpt>
      <trkpt lat="43.65114" lon="6.79096">
        <ele>452.92</ele>
        <time>2010-12-18T13:30:21Z</time>
      </trkpt>
      <trkpt lat="43.65109" lon="6.79098">
        <ele>454.36</ele>
        <time>2010-12-18T13:30:27Z</time>
      </trkpt>
      <trkpt lat="43.651" lon="6.79099">
        <ele>454.84</ele>
        <time>2010-12-18T13:30:36Z</time>
      </trkpt>
      <trkpt lat="43.65088" lon="6.79105">
        <ele>457.24</ele>
        <time>2010-12-18T13:30:51Z</time>
      </trkpt>
      <trkpt lat="43.65077" lon="6.79107">
        <ele>459.65</ele>
        <time>2010-12-18T13:31:03Z</time>
      </trkpt>
      <trkpt lat="43.65066" lon="6.79108">
        <ele>460.61</ele>
        <time>2010-12-18T13:31:17Z</time>
      </trkpt>
      <trkpt lat="43.65059" lon="6.79107">
        <ele>462.05</ele>
        <time>2010-12-18T13:31:27Z</time>
      </trkpt>
      <trkpt lat="43.6505" lon="6.79106">
        <ele>464.45</ele>
        <time>2010-12-18T13:31:41Z</time>
      </trkpt>
      <trkpt lat="43.65039" lon="6.79104">
        <ele>466.38</ele>
        <time>2010-12-18T13:31:55Z</time>
      </trkpt>
      <trkpt lat="43.65038" lon="6.79104">
        <ele>466.38</ele>
        <time>2010-12-18T13:31:57Z</time>
      </trkpt>
      <trkpt lat="43.65035" lon="6.79106">
        <ele>466.86</ele>
        <time>2010-12-18T13:32:00Z</time>
      </trkpt>
      <trkpt lat="43.65031" lon="6.79118">
        <ele>468.3</ele>
        <time>2010-12-18T13:32:10Z</time>
      </trkpt>
      <trkpt lat="43.65026" lon="6.79123">
        <ele>468.3</ele>
        <time>2010-12-18T13:32:16Z</time>
      </trkpt>
      <trkpt lat="43.65012" lon="6.79122">
        <ele>467.82</ele>
        <time>2010-12-18T13:32:28Z</time>
      </trkpt>
      <trkpt lat="43.65008" lon="6.79126">
        <ele>468.78</ele>
        <time>2010-12-18T13:32:33Z</time>
      </trkpt>
      <trkpt lat="43.64999" lon="6.79143">
        <ele>471.66</ele>
        <time>2010-12-18T13:32:49Z</time>
      </trkpt>
      <trkpt lat="43.64996" lon="6.79154">
        <ele>473.11</ele>
        <time>2010-12-18T13:33:02Z</time>
      </trkpt>
      <trkpt lat="43.64993" lon="6.7917">
        <ele>473.59</ele>
        <time>2010-12-18T13:33:14Z</time>
      </trkpt>
      <trkpt lat="43.64984" lon="6.79182">
        <ele>475.03</ele>
        <time>2010-12-18T13:33:27Z</time>
      </trkpt>
      <trkpt lat="43.64983" lon="6.79186">
        <ele>475.03</ele>
        <time>2010-12-18T13:33:30Z</time>
      </trkpt>
      <trkpt lat="43.64976" lon="6.79193">
        <ele>475.99</ele>
        <time>2010-12-18T13:33:37Z</time>
      </trkpt>
      <trkpt lat="43.64968" lon="6.79197">
        <ele>475.99</ele>
        <time>2010-12-18T13:33:45Z</time>
      </trkpt>
      <trkpt lat="43.64962" lon="6.79213">
        <ele>476.95</ele>
        <time>2010-12-18T13:33:58Z</time>
      </trkpt>
      <trkpt lat="43.64964" lon="6.79219">
        <ele>477.91</ele>
        <time>2010-12-18T13:34:04Z</time>
      </trkpt>
      <trkpt lat="43.64964" lon="6.79223">
        <ele>477.91</ele>
        <time>2010-12-18T13:34:07Z</time>
      </trkpt>
      <trkpt lat="43.64963" lon="6.79228">
        <ele>478.87</ele>
        <time>2010-12-18T13:34:16Z</time>
      </trkpt>
      <trkpt lat="43.64962" lon="6.79232">
        <ele>478.87</ele>
        <time>2010-12-18T13:34:34Z</time>
      </trkpt>
      <trkpt lat="43.6496" lon="6.79233">
        <ele>479.35</ele>
        <time>2010-12-18T13:34:56Z</time>
      </trkpt>
      <trkpt lat="43.6496" lon="6.79233">
        <ele>478.39</ele>
        <time>2010-12-18T13:35:18Z</time>
      </trkpt>
      <trkpt lat="43.64958" lon="6.79235">
        <ele>477.91</ele>
        <time>2010-12-18T13:35:40Z</time>
      </trkpt>
      <trkpt lat="43.64957" lon="6.79237">
        <ele>478.39</ele>
        <time>2010-12-18T13:36:02Z</time>
      </trkpt>
      <trkpt lat="43.64955" lon="6.79238">
        <ele>478.39</ele>
        <time>2010-12-18T13:36:19Z</time>
      </trkpt>
      <trkpt lat="43.64956" lon="6.79242">
        <ele>478.87</ele>
        <time>2010-12-18T13:36:24Z</time>
      </trkpt>
      <trkpt lat="43.6497" lon="6.79255">
        <ele>480.32</ele>
        <time>2010-12-18T13:36:39Z</time>
      </trkpt>
      <trkpt lat="43.64972" lon="6.79252">
        <ele>480.8</ele>
        <time>2010-12-18T13:36:41Z</time>
      </trkpt>
      <trkpt lat="43.64979" lon="6.7923">
        <ele>482.24</ele>
        <time>2010-12-18T13:36:56Z</time>
      </trkpt>
      <trkpt lat="43.64988" lon="6.79229">
        <ele>482.24</ele>
        <time>2010-12-18T13:37:09Z</time>
      </trkpt>
      <trkpt lat="43.64997" lon="6.79226">
        <ele>484.16</ele>
        <time>2010-12-18T13:37:25Z</time>
      </trkpt>
      <trkpt lat="43.64999" lon="6.79221">
        <ele>484.16</ele>
        <time>2010-12-18T13:37:31Z</time>
      </trkpt>
      <trkpt lat="43.65003" lon="6.79216">
        <ele>484.16</ele>
        <time>2010-12-18T13:37:35Z</time>
      </trkpt>
      <trkpt lat="43.6501" lon="6.79194">
        <ele>484.64</ele>
        <time>2010-12-18T13:37:52Z</time>
      </trkpt>
      <trkpt lat="43.65009" lon="6.79188">
        <ele>483.68</ele>
        <time>2010-12-18T13:38:00Z</time>
      </trkpt>
      <trkpt lat="43.6501" lon="6.79172">
        <ele>484.64</ele>
        <time>2010-12-18T13:38:14Z</time>
      </trkpt>
      <trkpt lat="43.65011" lon="6.79169">
        <ele>484.16</ele>
        <time>2010-12-18T13:38:26Z</time>
      </trkpt>
      <trkpt lat="43.65005" lon="6.79142">
        <ele>482.72</ele>
        <time>2010-12-18T13:38:40Z</time>
      </trkpt>
      <trkpt lat="43.65011" lon="6.79137">
        <ele>483.68</ele>
        <time>2010-12-18T13:38:49Z</time>
      </trkpt>
      <trkpt lat="43.65011" lon="6.79138">
        <ele>482.72</ele>
        <time>2010-12-18T13:39:10Z</time>
      </trkpt>
      <trkpt lat="43.65011" lon="6.79138">
        <ele>483.2</ele>
        <time>2010-12-18T13:39:29Z</time>
      </trkpt>
      <trkpt lat="43.65012" lon="6.79134">
        <ele>482.24</ele>
        <time>2010-12-18T13:39:46Z</time>
      </trkpt>
      <trkpt lat="43.65012" lon="6.79134">
        <ele>482.24</ele>
        <time>2010-12-18T13:39:48Z</time>
      </trkpt>
      <trkpt lat="43.65011" lon="6.79133">
        <ele>482.24</ele>
        <time>2010-12-18T13:40:07Z</time>
      </trkpt>
      <trkpt lat="43.65011" lon="6.79133">
        <ele>483.2</ele>
        <time>2010-12-18T13:40:29Z</time>
      </trkpt>
      <trkpt lat="43.65012" lon="6.79133">
        <ele>483.2</ele>
        <time>2010-12-18T13:40:47Z</time>
      </trkpt>
      <trkpt lat="43.65011" lon="6.79133">
        <ele>482.24</ele>
        <time>2010-12-18T13:41:10Z</time>
      </trkpt>
      <trkpt lat="43.65012" lon="6.79133">
        <ele>482.72</ele>
        <time>2010-12-18T13:41:46Z</time>
      </trkpt>
      <trkpt lat="43.65012" lon="6.79133">
        <ele>482.24</ele>
        <time>2010-12-18T13:42:14Z</time>
      </trkpt>
      <trkpt lat="43.65012" lon="6.79133">
        <ele>482.72</ele>
        <time>2010-12-18T13:42:41Z</time>
      </trkpt>
      <trkpt lat="43.65011" lon="6.79133">
        <ele>483.68</ele>
        <time>2010-12-18T13:43:10Z</time>
      </trkpt>
      <trkpt lat="43.65011" lon="6.79133">
        <ele>483.68</ele>
        <time>2010-12-18T13:43:41Z</time>
      </trkpt>
    </trkseg>
  </trk>
</gpx>